<?xml version='1.0' encoding='UTF-8'?>
<gpx version="1.1" creator="https://www.komoot.de" xmlns="http://www.topografix.com/GPX/1/1" xmlns:xsi="http://www.w3.org/2001/XMLSchema-instance" xsi:schemaLocation="http://www.topografix.com/GPX/1/1 http://www.topografix.com/GPX/1/1/gpx.xsd">
  <metadata>
    <name>44_750NeuligEdleten</name>
    <author>
      <link href="https://www.komoot.de">
        <text>komoot</text>
        <type>text/html</type>
      </link>
    </author>
  </metadata>
  <trk>
    <name>44_750NeuligEdleten</name>
    <trkseg>
      <trkpt lat="47.541493" lon="7.870727">
        <ele>342.102595</ele>
        <time>2021-11-07T13:18:00.057Z</time>
      </trkpt>
      <trkpt lat="47.541410" lon="7.870791">
        <ele>342.102595</ele>
        <time>2021-11-07T13:18:02.238Z</time>
      </trkpt>
      <trkpt lat="47.540933" lon="7.871187">
        <ele>342.102595</ele>
        <time>2021-11-07T13:18:14.842Z</time>
      </trkpt>
      <trkpt lat="47.540894" lon="7.871220">
        <ele>342.102595</ele>
        <time>2021-11-07T13:18:15.973Z</time>
      </trkpt>
      <trkpt lat="47.540693" lon="7.871390">
        <ele>342.136552</ele>
        <time>2021-11-07T13:18:21.497Z</time>
      </trkpt>
      <trkpt lat="47.540463" lon="7.871584">
        <ele>342.652529</ele>
        <time>2021-11-07T13:18:27.801Z</time>
      </trkpt>
      <trkpt lat="47.540265" lon="7.871808">
        <ele>343.138224</ele>
        <time>2021-11-07T13:18:33.343Z</time>
      </trkpt>
      <trkpt lat="47.540216" lon="7.871851">
        <ele>343.249254</ele>
        <time>2021-11-07T13:18:34.852Z</time>
      </trkpt>
      <trkpt lat="47.540034" lon="7.871970">
        <ele>343.637088</ele>
        <time>2021-11-07T13:18:39.556Z</time>
      </trkpt>
      <trkpt lat="47.539930" lon="7.872041">
        <ele>343.860331</ele>
        <time>2021-11-07T13:18:42.104Z</time>
      </trkpt>
      <trkpt lat="47.539841" lon="7.872151">
        <ele>344.086299</ele>
        <time>2021-11-07T13:18:45.128Z</time>
      </trkpt>
      <trkpt lat="47.539714" lon="7.872369">
        <ele>344.465259</ele>
        <time>2021-11-07T13:18:49.462Z</time>
      </trkpt>
      <trkpt lat="47.539678" lon="7.872430">
        <ele>344.571891</ele>
        <time>2021-11-07T13:18:50.650Z</time>
      </trkpt>
      <trkpt lat="47.539222" lon="7.873416">
        <ele>345.896084</ele>
        <time>2021-11-07T13:19:08.192Z</time>
      </trkpt>
      <trkpt lat="47.538278" lon="7.874319">
        <ele>347.069721</ele>
        <time>2021-11-07T13:19:27.846Z</time>
      </trkpt>
      <trkpt lat="47.537716" lon="7.874966">
        <ele>348.018267</ele>
        <time>2021-11-07T13:19:41.821Z</time>
      </trkpt>
      <trkpt lat="47.537261" lon="7.875237">
        <ele>348.853227</ele>
        <time>2021-11-07T13:19:51.338Z</time>
      </trkpt>
      <trkpt lat="47.537182" lon="7.875293">
        <ele>349.002341</ele>
        <time>2021-11-07T13:19:53.326Z</time>
      </trkpt>
      <trkpt lat="47.536921" lon="7.875537">
        <ele>349.527822</ele>
        <time>2021-11-07T13:19:59.293Z</time>
      </trkpt>
      <trkpt lat="47.536757" lon="7.875759">
        <ele>349.906084</ele>
        <time>2021-11-07T13:20:03.895Z</time>
      </trkpt>
      <trkpt lat="47.536632" lon="7.875912">
        <ele>350.182169</ele>
        <time>2021-11-07T13:20:07.063Z</time>
      </trkpt>
      <trkpt lat="47.536444" lon="7.876177">
        <ele>350.748008</ele>
        <time>2021-11-07T13:20:14.025Z</time>
      </trkpt>
      <trkpt lat="47.535851" lon="7.877319">
        <ele>355.174816</ele>
        <time>2021-11-07T13:20:45.339Z</time>
      </trkpt>
      <trkpt lat="47.535770" lon="7.877432">
        <ele>355.681232</ele>
        <time>2021-11-07T13:20:49.519Z</time>
      </trkpt>
      <trkpt lat="47.535635" lon="7.877484">
        <ele>356.316081</ele>
        <time>2021-11-07T13:20:55.386Z</time>
      </trkpt>
      <trkpt lat="47.535551" lon="7.877487">
        <ele>356.698494</ele>
        <time>2021-11-07T13:20:57.294Z</time>
      </trkpt>
      <trkpt lat="47.535322" lon="7.877590">
        <ele>357.787714</ele>
        <time>2021-11-07T13:21:07.346Z</time>
      </trkpt>
      <trkpt lat="47.535088" lon="7.877742">
        <ele>358.981304</ele>
        <time>2021-11-07T13:21:15.178Z</time>
      </trkpt>
      <trkpt lat="47.534855" lon="7.878090">
        <ele>360.702590</ele>
        <time>2021-11-07T13:21:27.161Z</time>
      </trkpt>
      <trkpt lat="47.534778" lon="7.878270">
        <ele>361.450974</ele>
        <time>2021-11-07T13:21:34.468Z</time>
      </trkpt>
      <trkpt lat="47.534825" lon="7.878414">
        <ele>362.012708</ele>
        <time>2021-11-07T13:21:37.094Z</time>
      </trkpt>
      <trkpt lat="47.534946" lon="7.878790">
        <ele>363.475579</ele>
        <time>2021-11-07T13:21:49.142Z</time>
      </trkpt>
      <trkpt lat="47.534908" lon="7.878975">
        <ele>364.154712</ele>
        <time>2021-11-07T13:21:53.200Z</time>
      </trkpt>
      <trkpt lat="47.534616" lon="7.879490">
        <ele>366.516639</ele>
        <time>2021-11-07T13:22:10.147Z</time>
      </trkpt>
      <trkpt lat="47.533892" lon="7.880353">
        <ele>369.721284</ele>
        <time>2021-11-07T13:22:37.886Z</time>
      </trkpt>
      <trkpt lat="47.533606" lon="7.880961">
        <ele>371.022236</ele>
        <time>2021-11-07T13:22:50.195Z</time>
      </trkpt>
      <trkpt lat="47.533374" lon="7.881639">
        <ele>372.356707</ele>
        <time>2021-11-07T13:23:01.240Z</time>
      </trkpt>
      <trkpt lat="47.533014" lon="7.882949">
        <ele>372.886531</ele>
        <time>2021-11-07T13:23:19.155Z</time>
      </trkpt>
      <trkpt lat="47.532859" lon="7.883508">
        <ele>372.946524</ele>
        <time>2021-11-07T13:23:25.033Z</time>
      </trkpt>
      <trkpt lat="47.532713" lon="7.884122">
        <ele>373.011151</ele>
        <time>2021-11-07T13:23:30.731Z</time>
      </trkpt>
      <trkpt lat="47.532699" lon="7.884224">
        <ele>373.021484</ele>
        <time>2021-11-07T13:23:31.685Z</time>
      </trkpt>
      <trkpt lat="47.532670" lon="7.884773">
        <ele>372.609344</ele>
        <time>2021-11-07T13:23:36.178Z</time>
      </trkpt>
      <trkpt lat="47.532658" lon="7.884989">
        <ele>372.392972</ele>
        <time>2021-11-07T13:23:37.790Z</time>
      </trkpt>
      <trkpt lat="47.532650" lon="7.885569">
        <ele>371.813810</ele>
        <time>2021-11-07T13:23:42.293Z</time>
      </trkpt>
      <trkpt lat="47.532505" lon="7.887120">
        <ele>370.234604</ele>
        <time>2021-11-07T13:23:54.244Z</time>
      </trkpt>
      <trkpt lat="47.532288" lon="7.887728">
        <ele>369.459284</ele>
        <time>2021-11-07T13:23:59.421Z</time>
      </trkpt>
      <trkpt lat="47.532011" lon="7.888896">
        <ele>368.063635</ele>
        <time>2021-11-07T13:24:08.645Z</time>
      </trkpt>
      <trkpt lat="47.531843" lon="7.889349">
        <ele>367.480959</ele>
        <time>2021-11-07T13:24:12.682Z</time>
      </trkpt>
      <trkpt lat="47.531560" lon="7.889776">
        <ele>367.296102</ele>
        <time>2021-11-07T13:24:17.620Z</time>
      </trkpt>
      <trkpt lat="47.531265" lon="7.889937">
        <ele>367.226422</ele>
        <time>2021-11-07T13:24:21.590Z</time>
      </trkpt>
      <trkpt lat="47.531076" lon="7.890029">
        <ele>367.182328</ele>
        <time>2021-11-07T13:24:24.411Z</time>
      </trkpt>
      <trkpt lat="47.530698" lon="7.890305">
        <ele>367.088922</ele>
        <time>2021-11-07T13:24:30.836Z</time>
      </trkpt>
      <trkpt lat="47.530606" lon="7.890373">
        <ele>367.066133</ele>
        <time>2021-11-07T13:24:32.281Z</time>
      </trkpt>
      <trkpt lat="47.530322" lon="7.890690">
        <ele>366.987314</ele>
        <time>2021-11-07T13:24:38.251Z</time>
      </trkpt>
      <trkpt lat="47.529972" lon="7.891210">
        <ele>367.418560</ele>
        <time>2021-11-07T13:24:47.409Z</time>
      </trkpt>
      <trkpt lat="47.529714" lon="7.891609">
        <ele>367.806944</ele>
        <time>2021-11-07T13:24:54.740Z</time>
      </trkpt>
      <trkpt lat="47.529695" lon="7.891638">
        <ele>367.835352</ele>
        <time>2021-11-07T13:24:55.721Z</time>
      </trkpt>
      <trkpt lat="47.529283" lon="7.892103">
        <ele>368.374687</ele>
        <time>2021-11-07T13:25:05.584Z</time>
      </trkpt>
      <trkpt lat="47.529235" lon="7.892158">
        <ele>368.437876</ele>
        <time>2021-11-07T13:25:06.709Z</time>
      </trkpt>
      <trkpt lat="47.528331" lon="7.892682">
        <ele>369.610974</ele>
        <time>2021-11-07T13:25:25.385Z</time>
      </trkpt>
      <trkpt lat="47.528003" lon="7.892732">
        <ele>370.046639</ele>
        <time>2021-11-07T13:25:31.101Z</time>
      </trkpt>
      <trkpt lat="47.527498" lon="7.892650">
        <ele>370.717876</ele>
        <time>2021-11-07T13:25:40.606Z</time>
      </trkpt>
      <trkpt lat="47.527011" lon="7.893061">
        <ele>371.712324</ele>
        <time>2021-11-07T13:25:53.798Z</time>
      </trkpt>
      <trkpt lat="47.526709" lon="7.893617">
        <ele>373.031224</ele>
        <time>2021-11-07T13:26:06.330Z</time>
      </trkpt>
      <trkpt lat="47.526504" lon="7.894030">
        <ele>373.978651</ele>
        <time>2021-11-07T13:26:16.511Z</time>
      </trkpt>
      <trkpt lat="47.526451" lon="7.893983">
        <ele>374.147749</ele>
        <time>2021-11-07T13:26:17.900Z</time>
      </trkpt>
      <trkpt lat="47.526401" lon="7.893964">
        <ele>374.289048</ele>
        <time>2021-11-07T13:26:18.718Z</time>
      </trkpt>
      <trkpt lat="47.526335" lon="7.893960">
        <ele>374.469861</ele>
        <time>2021-11-07T13:26:20.792Z</time>
      </trkpt>
      <trkpt lat="47.526257" lon="7.894278">
        <ele>375.095217</ele>
        <time>2021-11-07T13:26:27.003Z</time>
      </trkpt>
      <trkpt lat="47.525725" lon="7.895110">
        <ele>376.857922</ele>
        <time>2021-11-07T13:26:46.086Z</time>
      </trkpt>
      <trkpt lat="47.525603" lon="7.895265">
        <ele>377.151593</ele>
        <time>2021-11-07T13:26:51.702Z</time>
      </trkpt>
      <trkpt lat="47.525631" lon="7.895442">
        <ele>377.375864</ele>
        <time>2021-11-07T13:26:54.551Z</time>
      </trkpt>
      <trkpt lat="47.525631" lon="7.895583">
        <ele>377.549811</ele>
        <time>2021-11-07T13:26:55.743Z</time>
      </trkpt>
      <trkpt lat="47.525622" lon="7.895944">
        <ele>377.995467</ele>
        <time>2021-11-07T13:27:03.178Z</time>
      </trkpt>
      <trkpt lat="47.525590" lon="7.896117">
        <ele>378.216753</ele>
        <time>2021-11-07T13:27:04.731Z</time>
      </trkpt>
      <trkpt lat="47.525518" lon="7.896336">
        <ele>378.517246</ele>
        <time>2021-11-07T13:27:09.539Z</time>
      </trkpt>
      <trkpt lat="47.524834" lon="7.897636">
        <ele>379.432223</ele>
        <time>2021-11-07T13:27:26.462Z</time>
      </trkpt>
      <trkpt lat="47.524617" lon="7.898216">
        <ele>379.433071</ele>
        <time>2021-11-07T13:27:32.635Z</time>
      </trkpt>
      <trkpt lat="47.524360" lon="7.898951">
        <ele>379.434128</ele>
        <time>2021-11-07T13:27:40.176Z</time>
      </trkpt>
      <trkpt lat="47.524309" lon="7.899115">
        <ele>379.434359</ele>
        <time>2021-11-07T13:27:42.090Z</time>
      </trkpt>
      <trkpt lat="47.523896" lon="7.900001">
        <ele>380.305719</ele>
        <time>2021-11-07T13:27:54.013Z</time>
      </trkpt>
      <trkpt lat="47.523861" lon="7.900049">
        <ele>380.367786</ele>
        <time>2021-11-07T13:27:54.992Z</time>
      </trkpt>
      <trkpt lat="47.523890" lon="7.900131">
        <ele>380.449114</ele>
        <time>2021-11-07T13:27:55.947Z</time>
      </trkpt>
      <trkpt lat="47.523945" lon="7.900256">
        <ele>380.580196</ele>
        <time>2021-11-07T13:27:57.538Z</time>
      </trkpt>
      <trkpt lat="47.523989" lon="7.900340">
        <ele>380.673599</ele>
        <time>2021-11-07T13:27:58.588Z</time>
      </trkpt>
      <trkpt lat="47.523957" lon="7.900371">
        <ele>380.723351</ele>
        <time>2021-11-07T13:27:59.293Z</time>
      </trkpt>
      <trkpt lat="47.523878" lon="7.900445">
        <ele>380.844974</ele>
        <time>2021-11-07T13:28:01.410Z</time>
      </trkpt>
      <trkpt lat="47.523739" lon="7.900557">
        <ele>381.050864</ele>
        <time>2021-11-07T13:28:04.341Z</time>
      </trkpt>
      <trkpt lat="47.523648" lon="7.900606">
        <ele>381.176847</ele>
        <time>2021-11-07T13:28:06.520Z</time>
      </trkpt>
      <trkpt lat="47.523620" lon="7.900698">
        <ele>381.265510</ele>
        <time>2021-11-07T13:28:08.483Z</time>
      </trkpt>
      <trkpt lat="47.523567" lon="7.900820">
        <ele>381.392965</ele>
        <time>2021-11-07T13:28:10.580Z</time>
      </trkpt>
      <trkpt lat="47.523433" lon="7.901043">
        <ele>381.655234</ele>
        <time>2021-11-07T13:28:15.824Z</time>
      </trkpt>
      <trkpt lat="47.523340" lon="7.901197">
        <ele>381.966986</ele>
        <time>2021-11-07T13:28:19.867Z</time>
      </trkpt>
      <trkpt lat="47.523036" lon="7.901580">
        <ele>383.575564</ele>
        <time>2021-11-07T13:28:31.623Z</time>
      </trkpt>
      <trkpt lat="47.522688" lon="7.901843">
        <ele>385.150147</ele>
        <time>2021-11-07T13:28:43.937Z</time>
      </trkpt>
      <trkpt lat="47.522554" lon="7.901999">
        <ele>385.837095</ele>
        <time>2021-11-07T13:28:50.234Z</time>
      </trkpt>
      <trkpt lat="47.522260" lon="7.902356">
        <ele>387.369386</ele>
        <time>2021-11-07T13:29:02.611Z</time>
      </trkpt>
      <trkpt lat="47.522132" lon="7.902476">
        <ele>387.979937</ele>
        <time>2021-11-07T13:29:07.192Z</time>
      </trkpt>
      <trkpt lat="47.522065" lon="7.902526">
        <ele>388.282309</ele>
        <time>2021-11-07T13:29:09.373Z</time>
      </trkpt>
      <trkpt lat="47.522038" lon="7.902562">
        <ele>388.428733</ele>
        <time>2021-11-07T13:29:10.871Z</time>
      </trkpt>
      <trkpt lat="47.522013" lon="7.902637">
        <ele>388.656365</ele>
        <time>2021-11-07T13:29:12.994Z</time>
      </trkpt>
      <trkpt lat="47.521937" lon="7.902880">
        <ele>389.312805</ele>
        <time>2021-11-07T13:29:18.079Z</time>
      </trkpt>
      <trkpt lat="47.521792" lon="7.903347">
        <ele>390.431740</ele>
        <time>2021-11-07T13:29:29.090Z</time>
      </trkpt>
      <trkpt lat="47.521297" lon="7.904312">
        <ele>393.069801</ele>
        <time>2021-11-07T13:29:53.168Z</time>
      </trkpt>
      <trkpt lat="47.520989" lon="7.905130">
        <ele>394.893981</ele>
        <time>2021-11-07T13:30:08.551Z</time>
      </trkpt>
      <trkpt lat="47.520678" lon="7.906050">
        <ele>395.458781</ele>
        <time>2021-11-07T13:30:21.939Z</time>
      </trkpt>
      <trkpt lat="47.520670" lon="7.906093">
        <ele>395.483266</ele>
        <time>2021-11-07T13:30:22.469Z</time>
      </trkpt>
      <trkpt lat="47.520566" lon="7.906668">
        <ele>395.810054</ele>
        <time>2021-11-07T13:30:29.036Z</time>
      </trkpt>
      <trkpt lat="47.520528" lon="7.906930">
        <ele>395.957166</ele>
        <time>2021-11-07T13:30:32.248Z</time>
      </trkpt>
      <trkpt lat="47.520515" lon="7.907103">
        <ele>396.052725</ele>
        <time>2021-11-07T13:30:34.054Z</time>
      </trkpt>
      <trkpt lat="47.520506" lon="7.907236">
        <ele>396.126105</ele>
        <time>2021-11-07T13:30:35.143Z</time>
      </trkpt>
      <trkpt lat="47.520551" lon="7.907422">
        <ele>396.234570</ele>
        <time>2021-11-07T13:30:37.517Z</time>
      </trkpt>
      <trkpt lat="47.520733" lon="7.907655">
        <ele>396.302935</ele>
        <time>2021-11-07T13:30:40.724Z</time>
      </trkpt>
      <trkpt lat="47.520738" lon="7.907839">
        <ele>396.316196</ele>
        <time>2021-11-07T13:30:42.833Z</time>
      </trkpt>
      <trkpt lat="47.520493" lon="7.908683">
        <ele>396.382349</ele>
        <time>2021-11-07T13:30:50.981Z</time>
      </trkpt>
      <trkpt lat="47.519997" lon="7.910833">
        <ele>397.106302</ele>
        <time>2021-11-07T13:31:16.928Z</time>
      </trkpt>
      <trkpt lat="47.519891" lon="7.911129">
        <ele>397.322362</ele>
        <time>2021-11-07T13:31:21.518Z</time>
      </trkpt>
      <trkpt lat="47.519720" lon="7.911522">
        <ele>397.623848</ele>
        <time>2021-11-07T13:31:27.602Z</time>
      </trkpt>
      <trkpt lat="47.519421" lon="7.912098">
        <ele>398.092352</ele>
        <time>2021-11-07T13:31:37.168Z</time>
      </trkpt>
      <trkpt lat="47.517688" lon="7.914418">
        <ele>400.553105</ele>
        <time>2021-11-07T13:32:21.747Z</time>
      </trkpt>
      <trkpt lat="47.517281" lon="7.915238">
        <ele>401.218919</ele>
        <time>2021-11-07T13:32:34.761Z</time>
      </trkpt>
      <trkpt lat="47.517140" lon="7.915259">
        <ele>401.356206</ele>
        <time>2021-11-07T13:32:37.261Z</time>
      </trkpt>
      <trkpt lat="47.516806" lon="7.914896">
        <ele>401.757588</ele>
        <time>2021-11-07T13:32:44.836Z</time>
      </trkpt>
      <trkpt lat="47.516748" lon="7.914873">
        <ele>401.815758</ele>
        <time>2021-11-07T13:32:46.007Z</time>
      </trkpt>
      <trkpt lat="47.516662" lon="7.914835">
        <ele>401.900801</ele>
        <time>2021-11-07T13:32:47.799Z</time>
      </trkpt>
      <trkpt lat="47.516626" lon="7.914830">
        <ele>401.933247</ele>
        <time>2021-11-07T13:32:48.494Z</time>
      </trkpt>
      <trkpt lat="47.516590" lon="7.914840">
        <ele>401.966116</ele>
        <time>2021-11-07T13:32:49.089Z</time>
      </trkpt>
      <trkpt lat="47.516569" lon="7.914864">
        <ele>401.989921</ele>
        <time>2021-11-07T13:32:49.624Z</time>
      </trkpt>
      <trkpt lat="47.516544" lon="7.914936">
        <ele>402.038986</ele>
        <time>2021-11-07T13:32:50.471Z</time>
      </trkpt>
      <trkpt lat="47.516391" lon="7.915243">
        <ele>402.270217</ele>
        <time>2021-11-07T13:32:55.263Z</time>
      </trkpt>
      <trkpt lat="47.515014" lon="7.917030">
        <ele>404.091509</ele>
        <time>2021-11-07T13:33:29.040Z</time>
      </trkpt>
      <trkpt lat="47.514635" lon="7.917349">
        <ele>404.647743</ele>
        <time>2021-11-07T13:33:37.159Z</time>
      </trkpt>
      <trkpt lat="47.514561" lon="7.917409">
        <ele>404.755389</ele>
        <time>2021-11-07T13:33:39.050Z</time>
      </trkpt>
      <trkpt lat="47.514255" lon="7.917714">
        <ele>405.226035</ele>
        <time>2021-11-07T13:33:46.519Z</time>
      </trkpt>
      <trkpt lat="47.513378" lon="7.918393">
        <ele>407.064484</ele>
        <time>2021-11-07T13:34:08.246Z</time>
      </trkpt>
      <trkpt lat="47.513160" lon="7.918764">
        <ele>407.835330</ele>
        <time>2021-11-07T13:34:15.747Z</time>
      </trkpt>
      <trkpt lat="47.513058" lon="7.918896">
        <ele>408.149744</ele>
        <time>2021-11-07T13:34:18.903Z</time>
      </trkpt>
      <trkpt lat="47.512938" lon="7.919052">
        <ele>408.520372</ele>
        <time>2021-11-07T13:34:22.682Z</time>
      </trkpt>
      <trkpt lat="47.512664" lon="7.919306">
        <ele>409.270657</ele>
        <time>2021-11-07T13:34:30.905Z</time>
      </trkpt>
      <trkpt lat="47.512255" lon="7.919538">
        <ele>410.543297</ele>
        <time>2021-11-07T13:34:42.831Z</time>
      </trkpt>
      <trkpt lat="47.512085" lon="7.919732">
        <ele>411.431647</ele>
        <time>2021-11-07T13:34:49.039Z</time>
      </trkpt>
      <trkpt lat="47.511964" lon="7.919989">
        <ele>412.307409</ele>
        <time>2021-11-07T13:34:55.519Z</time>
      </trkpt>
      <trkpt lat="47.511883" lon="7.920133">
        <ele>412.831276</ele>
        <time>2021-11-07T13:34:59.533Z</time>
      </trkpt>
      <trkpt lat="47.511632" lon="7.920105">
        <ele>413.873063</ele>
        <time>2021-11-07T13:35:08.514Z</time>
      </trkpt>
      <trkpt lat="47.511375" lon="7.920079">
        <ele>414.939218</ele>
        <time>2021-11-07T13:35:17.010Z</time>
      </trkpt>
      <trkpt lat="47.510704" lon="7.919944">
        <ele>418.123272</ele>
        <time>2021-11-07T13:35:43.971Z</time>
      </trkpt>
      <trkpt lat="47.510627" lon="7.919935">
        <ele>418.804266</ele>
        <time>2021-11-07T13:35:46.815Z</time>
      </trkpt>
      <trkpt lat="47.510551" lon="7.919925">
        <ele>419.476972</ele>
        <time>2021-11-07T13:35:50.282Z</time>
      </trkpt>
      <trkpt lat="47.509902" lon="7.920009">
        <ele>425.220798</ele>
        <time>2021-11-07T13:36:21.502Z</time>
      </trkpt>
      <trkpt lat="47.509811" lon="7.920040">
        <ele>426.044079</ele>
        <time>2021-11-07T13:36:25.904Z</time>
      </trkpt>
      <trkpt lat="47.509780" lon="7.919943">
        <ele>426.683141</ele>
        <time>2021-11-07T13:36:31.038Z</time>
      </trkpt>
      <trkpt lat="47.509592" lon="7.919606">
        <ele>429.286072</ele>
        <time>2021-11-07T13:36:44.201Z</time>
      </trkpt>
      <trkpt lat="47.509472" lon="7.919450">
        <ele>430.694072</ele>
        <time>2021-11-07T13:36:56.891Z</time>
      </trkpt>
      <trkpt lat="47.509413" lon="7.919394">
        <ele>431.311981</ele>
        <time>2021-11-07T13:36:59.907Z</time>
      </trkpt>
      <trkpt lat="47.509300" lon="7.919312">
        <ele>432.421509</ele>
        <time>2021-11-07T13:37:06.850Z</time>
      </trkpt>
      <trkpt lat="47.509213" lon="7.919220">
        <ele>433.450877</ele>
        <time>2021-11-07T13:37:18.114Z</time>
      </trkpt>
      <trkpt lat="47.508928" lon="7.918826">
        <ele>439.821110</ele>
        <time>2021-11-07T13:37:44.293Z</time>
      </trkpt>
      <trkpt lat="47.508826" lon="7.918731">
        <ele>441.789754</ele>
        <time>2021-11-07T13:37:50.694Z</time>
      </trkpt>
      <trkpt lat="47.508716" lon="7.918612">
        <ele>444.015421</ele>
        <time>2021-11-07T13:38:02.679Z</time>
      </trkpt>
      <trkpt lat="47.508696" lon="7.918579">
        <ele>444.504663</ele>
        <time>2021-11-07T13:38:05.929Z</time>
      </trkpt>
      <trkpt lat="47.508574" lon="7.918322">
        <ele>447.970923</ele>
        <time>2021-11-07T13:38:18.264Z</time>
      </trkpt>
      <trkpt lat="47.508539" lon="7.918215">
        <ele>449.282817</ele>
        <time>2021-11-07T13:38:23.521Z</time>
      </trkpt>
      <trkpt lat="47.508519" lon="7.918140">
        <ele>450.172595</ele>
        <time>2021-11-07T13:38:29.411Z</time>
      </trkpt>
      <trkpt lat="47.508288" lon="7.916949">
        <ele>464.025000</ele>
        <time>2021-11-07T13:39:42.843Z</time>
      </trkpt>
      <trkpt lat="47.507722" lon="7.915765">
        <ele>482.414292</ele>
        <time>2021-11-07T13:41:17.785Z</time>
      </trkpt>
      <trkpt lat="47.507619" lon="7.915426">
        <ele>487.126874</ele>
        <time>2021-11-07T13:41:41.087Z</time>
      </trkpt>
      <trkpt lat="47.507438" lon="7.914913">
        <ele>494.464440</ele>
        <time>2021-11-07T13:42:15.649Z</time>
      </trkpt>
      <trkpt lat="47.507031" lon="7.914093">
        <ele>501.086756</ele>
        <time>2021-11-07T13:43:06.759Z</time>
      </trkpt>
      <trkpt lat="47.506741" lon="7.913552">
        <ele>504.827632</ele>
        <time>2021-11-07T13:43:31.774Z</time>
      </trkpt>
      <trkpt lat="47.506620" lon="7.913426">
        <ele>506.013863</ele>
        <time>2021-11-07T13:43:36.820Z</time>
      </trkpt>
      <trkpt lat="47.506403" lon="7.913196">
        <ele>508.153881</ele>
        <time>2021-11-07T13:43:43.405Z</time>
      </trkpt>
      <trkpt lat="47.506357" lon="7.913069">
        <ele>508.934434</ele>
        <time>2021-11-07T13:43:45.912Z</time>
      </trkpt>
      <trkpt lat="47.506370" lon="7.912895">
        <ele>509.882662</ele>
        <time>2021-11-07T13:43:48.123Z</time>
      </trkpt>
      <trkpt lat="47.506397" lon="7.912810">
        <ele>510.391432</ele>
        <time>2021-11-07T13:43:49.945Z</time>
      </trkpt>
      <trkpt lat="47.506437" lon="7.912765">
        <ele>510.794279</ele>
        <time>2021-11-07T13:43:50.375Z</time>
      </trkpt>
      <trkpt lat="47.506603" lon="7.912858">
        <ele>509.942732</ele>
        <time>2021-11-07T13:43:53.187Z</time>
      </trkpt>
      <trkpt lat="47.507354" lon="7.913927">
        <ele>504.639041</ele>
        <time>2021-11-07T13:44:02.969Z</time>
      </trkpt>
      <trkpt lat="47.507503" lon="7.914069">
        <ele>503.736949</ele>
        <time>2021-11-07T13:44:04.516Z</time>
      </trkpt>
      <trkpt lat="47.507686" lon="7.914148">
        <ele>502.766557</ele>
        <time>2021-11-07T13:44:06.163Z</time>
      </trkpt>
      <trkpt lat="47.508426" lon="7.914164">
        <ele>500.130414</ele>
        <time>2021-11-07T13:44:12.773Z</time>
      </trkpt>
      <trkpt lat="47.508709" lon="7.914562">
        <ele>498.985081</ele>
        <time>2021-11-07T13:44:16.379Z</time>
      </trkpt>
      <trkpt lat="47.508782" lon="7.914668">
        <ele>498.685050</ele>
        <time>2021-11-07T13:44:17.309Z</time>
      </trkpt>
      <trkpt lat="47.509091" lon="7.915120">
        <ele>497.410451</ele>
        <time>2021-11-07T13:44:24.760Z</time>
      </trkpt>
      <trkpt lat="47.509594" lon="7.915837">
        <ele>498.584682</ele>
        <time>2021-11-07T13:44:42.875Z</time>
      </trkpt>
      <trkpt lat="47.509723" lon="7.915879">
        <ele>499.409164</ele>
        <time>2021-11-07T13:44:47.632Z</time>
      </trkpt>
      <trkpt lat="47.509854" lon="7.915813">
        <ele>500.272943</ele>
        <time>2021-11-07T13:44:51.357Z</time>
      </trkpt>
      <trkpt lat="47.509916" lon="7.915715">
        <ele>500.839085</ele>
        <time>2021-11-07T13:44:55.319Z</time>
      </trkpt>
      <trkpt lat="47.509948" lon="7.915569">
        <ele>501.486270</ele>
        <time>2021-11-07T13:44:59.640Z</time>
      </trkpt>
      <trkpt lat="47.510115" lon="7.915369">
        <ele>502.827086</ele>
        <time>2021-11-07T13:45:09.142Z</time>
      </trkpt>
      <trkpt lat="47.511596" lon="7.914259">
        <ele>513.682222</ele>
        <time>2021-11-07T13:46:30.960Z</time>
      </trkpt>
      <trkpt lat="47.511803" lon="7.913909">
        <ele>515.817405</ele>
        <time>2021-11-07T13:46:42.474Z</time>
      </trkpt>
      <trkpt lat="47.511968" lon="7.913303">
        <ele>518.816234</ele>
        <time>2021-11-07T13:46:57.257Z</time>
      </trkpt>
      <trkpt lat="47.512010" lon="7.913161">
        <ele>519.527716</ele>
        <time>2021-11-07T13:47:01.659Z</time>
      </trkpt>
      <trkpt lat="47.512111" lon="7.912826">
        <ele>520.830539</ele>
        <time>2021-11-07T13:47:09.398Z</time>
      </trkpt>
      <trkpt lat="47.512145" lon="7.912581">
        <ele>521.659255</ele>
        <time>2021-11-07T13:47:15.831Z</time>
      </trkpt>
      <trkpt lat="47.512145" lon="7.912284">
        <ele>522.643307</ele>
        <time>2021-11-07T13:47:21.892Z</time>
      </trkpt>
      <trkpt lat="47.512105" lon="7.911774">
        <ele>524.344447</ele>
        <time>2021-11-07T13:47:33.868Z</time>
      </trkpt>
      <trkpt lat="47.512094" lon="7.911561">
        <ele>525.052241</ele>
        <time>2021-11-07T13:47:40.111Z</time>
      </trkpt>
      <trkpt lat="47.512061" lon="7.911240">
        <ele>526.128062</ele>
        <time>2021-11-07T13:47:46.443Z</time>
      </trkpt>
      <trkpt lat="47.512046" lon="7.911143">
        <ele>526.457769</ele>
        <time>2021-11-07T13:47:49.715Z</time>
      </trkpt>
      <trkpt lat="47.512027" lon="7.911061">
        <ele>526.745002</ele>
        <time>2021-11-07T13:47:52.011Z</time>
      </trkpt>
      <trkpt lat="47.511999" lon="7.910990">
        <ele>527.017410</ele>
        <time>2021-11-07T13:47:53.961Z</time>
      </trkpt>
      <trkpt lat="47.511957" lon="7.910912">
        <ele>527.347922</ele>
        <time>2021-11-07T13:47:55.692Z</time>
      </trkpt>
      <trkpt lat="47.511612" lon="7.910466">
        <ele>529.987290</ele>
        <time>2021-11-07T13:48:09.240Z</time>
      </trkpt>
      <trkpt lat="47.511554" lon="7.910372">
        <ele>530.587252</ele>
        <time>2021-11-07T13:48:13.062Z</time>
      </trkpt>
      <trkpt lat="47.511423" lon="7.910000">
        <ele>532.564193</ele>
        <time>2021-11-07T13:48:23.428Z</time>
      </trkpt>
      <trkpt lat="47.511210" lon="7.908836">
        <ele>538.247128</ele>
        <time>2021-11-07T13:49:00.572Z</time>
      </trkpt>
      <trkpt lat="47.511051" lon="7.908448">
        <ele>540.385727</ele>
        <time>2021-11-07T13:49:14.032Z</time>
      </trkpt>
      <trkpt lat="47.511003" lon="7.908355">
        <ele>540.937281</ele>
        <time>2021-11-07T13:49:18.708Z</time>
      </trkpt>
      <trkpt lat="47.510770" lon="7.908048">
        <ele>543.967094</ele>
        <time>2021-11-07T13:49:32.583Z</time>
      </trkpt>
      <trkpt lat="47.509018" lon="7.905757">
        <ele>571.323701</ele>
        <time>2021-11-07T13:51:48.026Z</time>
      </trkpt>
      <trkpt lat="47.508735" lon="7.905378">
        <ele>576.932412</ele>
        <time>2021-11-07T13:52:17.857Z</time>
      </trkpt>
      <trkpt lat="47.508336" lon="7.904859">
        <ele>584.738711</ele>
        <time>2021-11-07T13:53:07.205Z</time>
      </trkpt>
      <trkpt lat="47.507755" lon="7.904094">
        <ele>598.307470</ele>
        <time>2021-11-07T13:54:16.657Z</time>
      </trkpt>
      <trkpt lat="47.507642" lon="7.903919">
        <ele>601.209015</ele>
        <time>2021-11-07T13:54:33.249Z</time>
      </trkpt>
      <trkpt lat="47.507513" lon="7.903762">
        <ele>604.172038</ele>
        <time>2021-11-07T13:54:49.111Z</time>
      </trkpt>
      <trkpt lat="47.507370" lon="7.903682">
        <ele>606.884404</ele>
        <time>2021-11-07T13:55:01.514Z</time>
      </trkpt>
      <trkpt lat="47.507207" lon="7.903725">
        <ele>609.822063</ele>
        <time>2021-11-07T13:55:17.316Z</time>
      </trkpt>
      <trkpt lat="47.506576" lon="7.904680">
        <ele>621.423766</ele>
        <time>2021-11-07T13:56:23.107Z</time>
      </trkpt>
      <trkpt lat="47.506523" lon="7.904711">
        <ele>621.883381</ele>
        <time>2021-11-07T13:56:28.088Z</time>
      </trkpt>
      <trkpt lat="47.506472" lon="7.904720">
        <ele>622.297622</ele>
        <time>2021-11-07T13:56:32.467Z</time>
      </trkpt>
      <trkpt lat="47.506293" lon="7.904649">
        <ele>623.792230</ele>
        <time>2021-11-07T13:56:41.308Z</time>
      </trkpt>
      <trkpt lat="47.506127" lon="7.904233">
        <ele>626.424575</ele>
        <time>2021-11-07T13:56:53.399Z</time>
      </trkpt>
      <trkpt lat="47.505921" lon="7.903877">
        <ele>628.978452</ele>
        <time>2021-11-07T13:57:03.914Z</time>
      </trkpt>
      <trkpt lat="47.505864" lon="7.903761">
        <ele>629.759962</ele>
        <time>2021-11-07T13:57:07.031Z</time>
      </trkpt>
      <trkpt lat="47.505779" lon="7.903771">
        <ele>630.447671</ele>
        <time>2021-11-07T13:57:09.297Z</time>
      </trkpt>
      <trkpt lat="47.505478" lon="7.903468">
        <ele>632.094304</ele>
        <time>2021-11-07T13:57:19.287Z</time>
      </trkpt>
      <trkpt lat="47.505092" lon="7.902759">
        <ele>631.385257</ele>
        <time>2021-11-07T13:57:29.894Z</time>
      </trkpt>
      <trkpt lat="47.504178" lon="7.900100">
        <ele>626.659712</ele>
        <time>2021-11-07T13:57:50.254Z</time>
      </trkpt>
      <trkpt lat="47.504061" lon="7.899727">
        <ele>625.652644</ele>
        <time>2021-11-07T13:57:52.940Z</time>
      </trkpt>
      <trkpt lat="47.503897" lon="7.899246">
        <ele>624.333243</ele>
        <time>2021-11-07T13:57:56.459Z</time>
      </trkpt>
      <trkpt lat="47.503634" lon="7.898466">
        <ele>622.904885</ele>
        <time>2021-11-07T13:58:02.234Z</time>
      </trkpt>
      <trkpt lat="47.503488" lon="7.897768">
        <ele>621.979101</ele>
        <time>2021-11-07T13:58:07.181Z</time>
      </trkpt>
      <trkpt lat="47.503447" lon="7.897629">
        <ele>621.786932</ele>
        <time>2021-11-07T13:58:08.321Z</time>
      </trkpt>
      <trkpt lat="47.503354" lon="7.897295">
        <ele>621.329218</ele>
        <time>2021-11-07T13:58:11.167Z</time>
      </trkpt>
      <trkpt lat="47.503096" lon="7.896269">
        <ele>620.405331</ele>
        <time>2021-11-07T13:58:23.528Z</time>
      </trkpt>
      <trkpt lat="47.502986" lon="7.895692">
        <ele>620.660583</ele>
        <time>2021-11-07T13:58:31.565Z</time>
      </trkpt>
      <trkpt lat="47.502949" lon="7.895491">
        <ele>620.749279</ele>
        <time>2021-11-07T13:58:35.343Z</time>
      </trkpt>
      <trkpt lat="47.502670" lon="7.894886">
        <ele>621.061151</ele>
        <time>2021-11-07T13:58:44.962Z</time>
      </trkpt>
      <trkpt lat="47.502517" lon="7.894597">
        <ele>621.217475</ele>
        <time>2021-11-07T13:58:50.679Z</time>
      </trkpt>
      <trkpt lat="47.502453" lon="7.894433">
        <ele>621.298111</ele>
        <time>2021-11-07T13:58:52.018Z</time>
      </trkpt>
      <trkpt lat="47.502224" lon="7.893360">
        <ele>619.023886</ele>
        <time>2021-11-07T13:59:01.417Z</time>
      </trkpt>
      <trkpt lat="47.502213" lon="7.892998">
        <ele>617.980993</ele>
        <time>2021-11-07T13:59:04.080Z</time>
      </trkpt>
      <trkpt lat="47.502217" lon="7.892900">
        <ele>617.698433</ele>
        <time>2021-11-07T13:59:04.664Z</time>
      </trkpt>
      <trkpt lat="47.502142" lon="7.892201">
        <ele>615.661487</ele>
        <time>2021-11-07T13:59:09.206Z</time>
      </trkpt>
      <trkpt lat="47.501593" lon="7.891145">
        <ele>609.590482</ele>
        <time>2021-11-07T13:59:17.124Z</time>
      </trkpt>
      <trkpt lat="47.501490" lon="7.890827">
        <ele>607.401605</ele>
        <time>2021-11-07T13:59:19.168Z</time>
      </trkpt>
      <trkpt lat="47.501442" lon="7.890291">
        <ele>604.045674</ele>
        <time>2021-11-07T13:59:22.323Z</time>
      </trkpt>
      <trkpt lat="47.501468" lon="7.889658">
        <ele>600.109533</ele>
        <time>2021-11-07T13:59:26.029Z</time>
      </trkpt>
      <trkpt lat="47.501460" lon="7.889185">
        <ele>597.180668</ele>
        <time>2021-11-07T13:59:28.795Z</time>
      </trkpt>
      <trkpt lat="47.501458" lon="7.889097">
        <ele>596.703305</ele>
        <time>2021-11-07T13:59:29.296Z</time>
      </trkpt>
      <trkpt lat="47.501298" lon="7.888046">
        <ele>590.862403</ele>
        <time>2021-11-07T13:59:35.644Z</time>
      </trkpt>
      <trkpt lat="47.501229" lon="7.887595">
        <ele>588.355375</ele>
        <time>2021-11-07T13:59:38.421Z</time>
      </trkpt>
      <trkpt lat="47.501173" lon="7.887242">
        <ele>586.389513</ele>
        <time>2021-11-07T13:59:40.581Z</time>
      </trkpt>
      <trkpt lat="47.501169" lon="7.887028">
        <ele>585.228859</ele>
        <time>2021-11-07T13:59:41.852Z</time>
      </trkpt>
      <trkpt lat="47.501203" lon="7.886606">
        <ele>582.924755</ele>
        <time>2021-11-07T13:59:44.556Z</time>
      </trkpt>
      <trkpt lat="47.501217" lon="7.886443">
        <ele>582.147360</ele>
        <time>2021-11-07T13:59:45.582Z</time>
      </trkpt>
      <trkpt lat="47.501340" lon="7.885347">
        <ele>577.015027</ele>
        <time>2021-11-07T13:59:52.399Z</time>
      </trkpt>
      <trkpt lat="47.501548" lon="7.884312">
        <ele>572.026818</ele>
        <time>2021-11-07T13:59:58.933Z</time>
      </trkpt>
      <trkpt lat="47.501604" lon="7.883848">
        <ele>569.738882</ele>
        <time>2021-11-07T14:00:01.781Z</time>
      </trkpt>
      <trkpt lat="47.501649" lon="7.883525">
        <ele>567.957164</ele>
        <time>2021-11-07T14:00:03.768Z</time>
      </trkpt>
      <trkpt lat="47.501738" lon="7.883219">
        <ele>566.157311</ele>
        <time>2021-11-07T14:00:05.802Z</time>
      </trkpt>
      <trkpt lat="47.501771" lon="7.883120">
        <ele>565.560905</ele>
        <time>2021-11-07T14:00:06.456Z</time>
      </trkpt>
      <trkpt lat="47.501864" lon="7.882799">
        <ele>563.673972</ele>
        <time>2021-11-07T14:00:08.570Z</time>
      </trkpt>
      <trkpt lat="47.502265" lon="7.881790">
        <ele>557.349633</ele>
        <time>2021-11-07T14:00:15.493Z</time>
      </trkpt>
      <trkpt lat="47.502443" lon="7.881187">
        <ele>553.284324</ele>
        <time>2021-11-07T14:00:19.399Z</time>
      </trkpt>
      <trkpt lat="47.502801" lon="7.880243">
        <ele>546.151589</ele>
        <time>2021-11-07T14:00:25.718Z</time>
      </trkpt>
      <trkpt lat="47.502838" lon="7.880150">
        <ele>545.440480</ele>
        <time>2021-11-07T14:00:26.333Z</time>
      </trkpt>
      <trkpt lat="47.502894" lon="7.880014">
        <ele>544.391091</ele>
        <time>2021-11-07T14:00:27.255Z</time>
      </trkpt>
      <trkpt lat="47.503005" lon="7.879648">
        <ele>541.747791</ele>
        <time>2021-11-07T14:00:29.586Z</time>
      </trkpt>
      <trkpt lat="47.503076" lon="7.878993">
        <ele>537.387961</ele>
        <time>2021-11-07T14:00:33.434Z</time>
      </trkpt>
      <trkpt lat="47.503079" lon="7.878798">
        <ele>536.114556</ele>
        <time>2021-11-07T14:00:34.570Z</time>
      </trkpt>
      <trkpt lat="47.503165" lon="7.878375">
        <ele>533.230611</ele>
        <time>2021-11-07T14:00:37.118Z</time>
      </trkpt>
      <trkpt lat="47.503455" lon="7.877034">
        <ele>524.038166</ele>
        <time>2021-11-07T14:00:45.367Z</time>
      </trkpt>
      <trkpt lat="47.503619" lon="7.876694">
        <ele>521.310709</ele>
        <time>2021-11-07T14:00:47.779Z</time>
      </trkpt>
      <trkpt lat="47.504101" lon="7.875980">
        <ele>516.863809</ele>
        <time>2021-11-07T14:00:53.782Z</time>
      </trkpt>
      <trkpt lat="47.504368" lon="7.875216">
        <ele>513.107288</ele>
        <time>2021-11-07T14:00:59.065Z</time>
      </trkpt>
      <trkpt lat="47.504456" lon="7.874954">
        <ele>511.829480</ele>
        <time>2021-11-07T14:01:00.846Z</time>
      </trkpt>
      <trkpt lat="47.504138" lon="7.874810">
        <ele>509.679675</ele>
        <time>2021-11-07T14:01:04.129Z</time>
      </trkpt>
      <trkpt lat="47.503780" lon="7.874762">
        <ele>509.832630</ele>
        <time>2021-11-07T14:01:07.935Z</time>
      </trkpt>
      <trkpt lat="47.503258" lon="7.874914">
        <ele>510.247298</ele>
        <time>2021-11-07T14:01:14.965Z</time>
      </trkpt>
      <trkpt lat="47.502952" lon="7.875026">
        <ele>510.492991</ele>
        <time>2021-11-07T14:01:20.077Z</time>
      </trkpt>
      <trkpt lat="47.502842" lon="7.875099">
        <ele>510.586953</ele>
        <time>2021-11-07T14:01:24.254Z</time>
      </trkpt>
      <trkpt lat="47.502590" lon="7.875352">
        <ele>510.824289</ele>
        <time>2021-11-07T14:01:32.509Z</time>
      </trkpt>
      <trkpt lat="47.501223" lon="7.877550">
        <ele>522.029055</ele>
        <time>2021-11-07T14:02:51.378Z</time>
      </trkpt>
      <trkpt lat="47.500871" lon="7.877817">
        <ele>525.662184</ele>
        <time>2021-11-07T14:03:09.014Z</time>
      </trkpt>
      <trkpt lat="47.500646" lon="7.877870">
        <ele>527.754943</ele>
        <time>2021-11-07T14:03:19.791Z</time>
      </trkpt>
      <trkpt lat="47.500435" lon="7.877886">
        <ele>529.695640</ele>
        <time>2021-11-07T14:03:28.613Z</time>
      </trkpt>
      <trkpt lat="47.500406" lon="7.877881">
        <ele>529.963823</ele>
        <time>2021-11-07T14:03:29.747Z</time>
      </trkpt>
      <trkpt lat="47.500301" lon="7.877860">
        <ele>530.937072</ele>
        <time>2021-11-07T14:03:35.687Z</time>
      </trkpt>
      <trkpt lat="47.499321" lon="7.877227">
        <ele>541.774887</ele>
        <time>2021-11-07T14:04:40.884Z</time>
      </trkpt>
      <trkpt lat="47.499098" lon="7.877132">
        <ele>544.762111</ele>
        <time>2021-11-07T14:04:54.368Z</time>
      </trkpt>
      <trkpt lat="47.498805" lon="7.877120">
        <ele>548.535361</ele>
        <time>2021-11-07T14:05:13.062Z</time>
      </trkpt>
      <trkpt lat="47.498728" lon="7.877133">
        <ele>549.533014</ele>
        <time>2021-11-07T14:05:19.125Z</time>
      </trkpt>
      <trkpt lat="47.498622" lon="7.877161">
        <ele>550.919118</ele>
        <time>2021-11-07T14:05:26.873Z</time>
      </trkpt>
      <trkpt lat="47.498351" lon="7.877306">
        <ele>554.628655</ele>
        <time>2021-11-07T14:05:44.592Z</time>
      </trkpt>
      <trkpt lat="47.498148" lon="7.877525">
        <ele>557.862354</ele>
        <time>2021-11-07T14:05:59.437Z</time>
      </trkpt>
      <trkpt lat="47.497693" lon="7.878386">
        <ele>567.669849</ele>
        <time>2021-11-07T14:06:58.893Z</time>
      </trkpt>
      <trkpt lat="47.497250" lon="7.878931">
        <ele>575.457515</ele>
        <time>2021-11-07T14:07:43.310Z</time>
      </trkpt>
      <trkpt lat="47.497148" lon="7.879174">
        <ele>578.070528</ele>
        <time>2021-11-07T14:07:54.068Z</time>
      </trkpt>
      <trkpt lat="47.497087" lon="7.879380">
        <ele>580.124897</ele>
        <time>2021-11-07T14:08:06.076Z</time>
      </trkpt>
      <trkpt lat="47.497046" lon="7.879652">
        <ele>582.670400</ele>
        <time>2021-11-07T14:08:16.260Z</time>
      </trkpt>
      <trkpt lat="47.496934" lon="7.880335">
        <ele>587.059705</ele>
        <time>2021-11-07T14:08:44.252Z</time>
      </trkpt>
      <trkpt lat="47.496817" lon="7.881208">
        <ele>590.323906</ele>
        <time>2021-11-07T14:09:12.643Z</time>
      </trkpt>
      <trkpt lat="47.496775" lon="7.881742">
        <ele>592.295633</ele>
        <time>2021-11-07T14:09:26.659Z</time>
      </trkpt>
      <trkpt lat="47.496758" lon="7.882064">
        <ele>593.480204</ele>
        <time>2021-11-07T14:09:30.594Z</time>
      </trkpt>
      <trkpt lat="47.496733" lon="7.882493">
        <ele>595.059450</ele>
        <time>2021-11-07T14:09:35.572Z</time>
      </trkpt>
      <trkpt lat="47.496732" lon="7.882629">
        <ele>595.390270</ele>
        <time>2021-11-07T14:09:38.353Z</time>
      </trkpt>
      <trkpt lat="47.496724" lon="7.882743">
        <ele>595.082533</ele>
        <time>2021-11-07T14:09:39.310Z</time>
      </trkpt>
      <trkpt lat="47.496734" lon="7.882969">
        <ele>594.474422</ele>
        <time>2021-11-07T14:09:41.462Z</time>
      </trkpt>
      <trkpt lat="47.496687" lon="7.883397">
        <ele>593.310159</ele>
        <time>2021-11-07T14:09:44.499Z</time>
      </trkpt>
      <trkpt lat="47.496652" lon="7.883465">
        <ele>593.080633</ele>
        <time>2021-11-07T14:09:45.329Z</time>
      </trkpt>
      <trkpt lat="47.496581" lon="7.883536">
        <ele>592.740111</ele>
        <time>2021-11-07T14:09:46.097Z</time>
      </trkpt>
      <trkpt lat="47.496049" lon="7.883820">
        <ele>590.492595</ele>
        <time>2021-11-07T14:09:51.629Z</time>
      </trkpt>
      <trkpt lat="47.495454" lon="7.883705">
        <ele>587.877879</ele>
        <time>2021-11-07T14:09:57.064Z</time>
      </trkpt>
      <trkpt lat="47.494764" lon="7.884042">
        <ele>581.756038</ele>
        <time>2021-11-07T14:10:03.498Z</time>
      </trkpt>
      <trkpt lat="47.494367" lon="7.884261">
        <ele>578.186396</ele>
        <time>2021-11-07T14:10:07.240Z</time>
      </trkpt>
      <trkpt lat="47.494186" lon="7.884344">
        <ele>576.589888</ele>
        <time>2021-11-07T14:10:08.871Z</time>
      </trkpt>
      <trkpt lat="47.493814" lon="7.884597">
        <ele>573.135671</ele>
        <time>2021-11-07T14:10:12.399Z</time>
      </trkpt>
      <trkpt lat="47.493304" lon="7.885334">
        <ele>565.544917</ele>
        <time>2021-11-07T14:10:18.526Z</time>
      </trkpt>
      <trkpt lat="47.493060" lon="7.885635">
        <ele>562.162209</ele>
        <time>2021-11-07T14:10:21.205Z</time>
      </trkpt>
      <trkpt lat="47.492927" lon="7.885817">
        <ele>560.233199</ele>
        <time>2021-11-07T14:10:22.735Z</time>
      </trkpt>
      <trkpt lat="47.492348" lon="7.886838">
        <ele>551.112031</ele>
        <time>2021-11-07T14:10:30.484Z</time>
      </trkpt>
      <trkpt lat="47.492288" lon="7.886983">
        <ele>550.059590</ele>
        <time>2021-11-07T14:10:31.452Z</time>
      </trkpt>
      <trkpt lat="47.492246" lon="7.887099">
        <ele>549.244991</ele>
        <time>2021-11-07T14:10:32.224Z</time>
      </trkpt>
      <trkpt lat="47.492175" lon="7.887289">
        <ele>547.901068</ele>
        <time>2021-11-07T14:10:33.487Z</time>
      </trkpt>
      <trkpt lat="47.491962" lon="7.888038">
        <ele>542.871052</ele>
        <time>2021-11-07T14:10:38.286Z</time>
      </trkpt>
      <trkpt lat="47.491769" lon="7.889166">
        <ele>535.919490</ele>
        <time>2021-11-07T14:10:45.202Z</time>
      </trkpt>
      <trkpt lat="47.491698" lon="7.889463">
        <ele>534.232559</ele>
        <time>2021-11-07T14:10:47.053Z</time>
      </trkpt>
      <trkpt lat="47.491657" lon="7.889588">
        <ele>533.488534</ele>
        <time>2021-11-07T14:10:47.946Z</time>
      </trkpt>
      <trkpt lat="47.491390" lon="7.890064">
        <ele>530.175910</ele>
        <time>2021-11-07T14:10:51.756Z</time>
      </trkpt>
      <trkpt lat="47.491152" lon="7.890269">
        <ele>527.993658</ele>
        <time>2021-11-07T14:10:54.227Z</time>
      </trkpt>
      <trkpt lat="47.491016" lon="7.890331">
        <ele>526.865931</ele>
        <time>2021-11-07T14:10:55.509Z</time>
      </trkpt>
      <trkpt lat="47.490978" lon="7.890353">
        <ele>526.542572</ele>
        <time>2021-11-07T14:10:55.846Z</time>
      </trkpt>
      <trkpt lat="47.490438" lon="7.890555">
        <ele>522.010459</ele>
        <time>2021-11-07T14:11:00.720Z</time>
      </trkpt>
      <trkpt lat="47.489665" lon="7.890612">
        <ele>515.244346</ele>
        <time>2021-11-07T14:11:07.388Z</time>
      </trkpt>
      <trkpt lat="47.489379" lon="7.890627">
        <ele>512.742504</ele>
        <time>2021-11-07T14:11:09.835Z</time>
      </trkpt>
      <trkpt lat="47.488950" lon="7.890650">
        <ele>508.989635</ele>
        <time>2021-11-07T14:11:13.651Z</time>
      </trkpt>
      <trkpt lat="47.488715" lon="7.890673">
        <ele>507.246473</ele>
        <time>2021-11-07T14:11:15.810Z</time>
      </trkpt>
      <trkpt lat="47.488680" lon="7.890697">
        <ele>507.081069</ele>
        <time>2021-11-07T14:11:16.133Z</time>
      </trkpt>
      <trkpt lat="47.488595" lon="7.890769">
        <ele>506.661116</ele>
        <time>2021-11-07T14:11:17.107Z</time>
      </trkpt>
      <trkpt lat="47.488499" lon="7.890970">
        <ele>505.947934</ele>
        <time>2021-11-07T14:11:18.676Z</time>
      </trkpt>
      <trkpt lat="47.488495" lon="7.891186">
        <ele>505.321842</ele>
        <time>2021-11-07T14:11:19.979Z</time>
      </trkpt>
      <trkpt lat="47.488799" lon="7.891910">
        <ele>502.852061</ele>
        <time>2021-11-07T14:11:25.664Z</time>
      </trkpt>
      <trkpt lat="47.488835" lon="7.892066">
        <ele>502.374424</ele>
        <time>2021-11-07T14:11:26.653Z</time>
      </trkpt>
      <trkpt lat="47.488809" lon="7.892200">
        <ele>501.970474</ele>
        <time>2021-11-07T14:11:27.856Z</time>
      </trkpt>
      <trkpt lat="47.488707" lon="7.892577">
        <ele>500.793821</ele>
        <time>2021-11-07T14:11:30.566Z</time>
      </trkpt>
      <trkpt lat="47.488649" lon="7.892618">
        <ele>500.518207</ele>
        <time>2021-11-07T14:11:31.812Z</time>
      </trkpt>
      <trkpt lat="47.488571" lon="7.892671">
        <ele>500.150182</ele>
        <time>2021-11-07T14:11:32.987Z</time>
      </trkpt>
      <trkpt lat="47.488402" lon="7.893037">
        <ele>499.298560</ele>
        <time>2021-11-07T14:11:36.388Z</time>
      </trkpt>
      <trkpt lat="47.488323" lon="7.893133">
        <ele>499.055356</ele>
        <time>2021-11-07T14:11:37.856Z</time>
      </trkpt>
      <trkpt lat="47.488250" lon="7.893055">
        <ele>498.841135</ele>
        <time>2021-11-07T14:11:38.713Z</time>
      </trkpt>
      <trkpt lat="47.488168" lon="7.892899">
        <ele>498.523387</ele>
        <time>2021-11-07T14:11:40.551Z</time>
      </trkpt>
      <trkpt lat="47.488137" lon="7.892763">
        <ele>498.292634</ele>
        <time>2021-11-07T14:11:41.819Z</time>
      </trkpt>
      <trkpt lat="47.488084" lon="7.892534">
        <ele>497.903471</ele>
        <time>2021-11-07T14:11:43.442Z</time>
      </trkpt>
      <trkpt lat="47.487680" lon="7.891282">
        <ele>495.672879</ele>
        <time>2021-11-07T14:11:53.601Z</time>
      </trkpt>
      <trkpt lat="47.487518" lon="7.890485">
        <ele>493.723202</ele>
        <time>2021-11-07T14:11:59.031Z</time>
      </trkpt>
      <trkpt lat="47.487490" lon="7.890449">
        <ele>493.590856</ele>
        <time>2021-11-07T14:11:59.387Z</time>
      </trkpt>
      <trkpt lat="47.487367" lon="7.890321">
        <ele>493.054333</ele>
        <time>2021-11-07T14:12:00.873Z</time>
      </trkpt>
      <trkpt lat="47.486940" lon="7.889619">
        <ele>490.777009</ele>
        <time>2021-11-07T14:12:07.339Z</time>
      </trkpt>
      <trkpt lat="47.486763" lon="7.889251">
        <ele>489.687899</ele>
        <time>2021-11-07T14:12:10.475Z</time>
      </trkpt>
      <trkpt lat="47.486746" lon="7.889218">
        <ele>489.587847</ele>
        <time>2021-11-07T14:12:10.715Z</time>
      </trkpt>
      <trkpt lat="47.486185" lon="7.888073">
        <ele>485.447045</ele>
        <time>2021-11-07T14:12:19.954Z</time>
      </trkpt>
      <trkpt lat="47.485991" lon="7.887744">
        <ele>484.134606</ele>
        <time>2021-11-07T14:12:22.770Z</time>
      </trkpt>
      <trkpt lat="47.485842" lon="7.887493">
        <ele>483.130409</ele>
        <time>2021-11-07T14:12:24.872Z</time>
      </trkpt>
      <trkpt lat="47.485824" lon="7.887463">
        <ele>483.009823</ele>
        <time>2021-11-07T14:12:25.129Z</time>
      </trkpt>
      <trkpt lat="47.485730" lon="7.887323">
        <ele>482.416620</ele>
        <time>2021-11-07T14:12:26.391Z</time>
      </trkpt>
      <trkpt lat="47.484923" lon="7.886213">
        <ele>477.907976</ele>
        <time>2021-11-07T14:12:37.004Z</time>
      </trkpt>
      <trkpt lat="47.484859" lon="7.886144">
        <ele>477.593854</ele>
        <time>2021-11-07T14:12:37.734Z</time>
      </trkpt>
      <trkpt lat="47.484724" lon="7.885990">
        <ele>476.917660</ele>
        <time>2021-11-07T14:12:39.421Z</time>
      </trkpt>
      <trkpt lat="47.484124" lon="7.885514">
        <ele>474.217009</ele>
        <time>2021-11-07T14:12:46.277Z</time>
      </trkpt>
      <trkpt lat="47.483644" lon="7.884992">
        <ele>472.460383</ele>
        <time>2021-11-07T14:12:52.211Z</time>
      </trkpt>
      <trkpt lat="47.483551" lon="7.884901">
        <ele>472.142739</ele>
        <time>2021-11-07T14:12:53.355Z</time>
      </trkpt>
      <trkpt lat="47.483495" lon="7.884861">
        <ele>471.965581</ele>
        <time>2021-11-07T14:12:53.965Z</time>
      </trkpt>
      <trkpt lat="47.483344" lon="7.884768">
        <ele>471.499611</ele>
        <time>2021-11-07T14:12:55.747Z</time>
      </trkpt>
      <trkpt lat="47.482795" lon="7.884621">
        <ele>469.910126</ele>
        <time>2021-11-07T14:13:01.572Z</time>
      </trkpt>
      <trkpt lat="47.482343" lon="7.884501">
        <ele>468.686838</ele>
        <time>2021-11-07T14:13:06.500Z</time>
      </trkpt>
      <trkpt lat="47.482094" lon="7.884439">
        <ele>468.186131</ele>
        <time>2021-11-07T14:13:09.126Z</time>
      </trkpt>
      <trkpt lat="47.481625" lon="7.884355">
        <ele>467.249320</ele>
        <time>2021-11-07T14:13:14.437Z</time>
      </trkpt>
      <trkpt lat="47.481202" lon="7.884417">
        <ele>466.406409</ele>
        <time>2021-11-07T14:13:19.168Z</time>
      </trkpt>
      <trkpt lat="47.481022" lon="7.884472">
        <ele>466.041939</ele>
        <time>2021-11-07T14:13:21.118Z</time>
      </trkpt>
      <trkpt lat="47.480931" lon="7.884489">
        <ele>465.860054</ele>
        <time>2021-11-07T14:13:22.248Z</time>
      </trkpt>
      <trkpt lat="47.480537" lon="7.884477">
        <ele>465.186260</ele>
        <time>2021-11-07T14:13:26.636Z</time>
      </trkpt>
      <trkpt lat="47.479813" lon="7.884128">
        <ele>464.364564</ele>
        <time>2021-11-07T14:13:35.438Z</time>
      </trkpt>
      <trkpt lat="47.479273" lon="7.883853">
        <ele>463.748291</ele>
        <time>2021-11-07T14:13:42.427Z</time>
      </trkpt>
      <trkpt lat="47.479105" lon="7.883776">
        <ele>463.558501</ele>
        <time>2021-11-07T14:13:44.677Z</time>
      </trkpt>
      <trkpt lat="47.478811" lon="7.883733">
        <ele>463.546841</ele>
        <time>2021-11-07T14:13:48.619Z</time>
      </trkpt>
      <trkpt lat="47.478579" lon="7.883777">
        <ele>463.872271</ele>
        <time>2021-11-07T14:13:51.852Z</time>
      </trkpt>
      <trkpt lat="47.477249" lon="7.884423">
        <ele>465.819904</ele>
        <time>2021-11-07T14:14:20.357Z</time>
      </trkpt>
      <trkpt lat="47.476108" lon="7.884690">
        <ele>471.125481</ele>
        <time>2021-11-07T14:14:59.623Z</time>
      </trkpt>
      <trkpt lat="47.475795" lon="7.884698">
        <ele>472.599748</ele>
        <time>2021-11-07T14:15:11.487Z</time>
      </trkpt>
      <trkpt lat="47.475660" lon="7.884681">
        <ele>473.237818</ele>
        <time>2021-11-07T14:15:16.524Z</time>
      </trkpt>
      <trkpt lat="47.475395" lon="7.884643">
        <ele>474.471061</ele>
        <time>2021-11-07T14:15:27.040Z</time>
      </trkpt>
      <trkpt lat="47.474825" lon="7.884590">
        <ele>476.777891</ele>
        <time>2021-11-07T14:15:46.725Z</time>
      </trkpt>
      <trkpt lat="47.474703" lon="7.884534">
        <ele>477.293833</ele>
        <time>2021-11-07T14:15:52.273Z</time>
      </trkpt>
      <trkpt lat="47.474508" lon="7.884402">
        <ele>478.159986</ele>
        <time>2021-11-07T14:15:58.643Z</time>
      </trkpt>
      <trkpt lat="47.473290" lon="7.883592">
        <ele>481.414007</ele>
        <time>2021-11-07T14:16:34.402Z</time>
      </trkpt>
      <trkpt lat="47.473082" lon="7.883408">
        <ele>481.314292</ele>
        <time>2021-11-07T14:16:38.114Z</time>
      </trkpt>
      <trkpt lat="47.472670" lon="7.883027">
        <ele>481.114379</ele>
        <time>2021-11-07T14:16:44.833Z</time>
      </trkpt>
      <trkpt lat="47.471932" lon="7.882355">
        <ele>478.175172</ele>
        <time>2021-11-07T14:16:54.018Z</time>
      </trkpt>
      <trkpt lat="47.471600" lon="7.881776">
        <ele>473.177984</ele>
        <time>2021-11-07T14:16:58.501Z</time>
      </trkpt>
      <trkpt lat="47.471472" lon="7.881494">
        <ele>470.942328</ele>
        <time>2021-11-07T14:17:00.511Z</time>
      </trkpt>
      <trkpt lat="47.471451" lon="7.881438">
        <ele>470.520834</ele>
        <time>2021-11-07T14:17:00.894Z</time>
      </trkpt>
      <trkpt lat="47.471376" lon="7.881235">
        <ele>468.998204</ele>
        <time>2021-11-07T14:17:02.213Z</time>
      </trkpt>
      <trkpt lat="47.471173" lon="7.880721">
        <ele>465.080100</ele>
        <time>2021-11-07T14:17:05.583Z</time>
      </trkpt>
      <trkpt lat="47.471143" lon="7.880602">
        <ele>464.244178</ele>
        <time>2021-11-07T14:17:06.287Z</time>
      </trkpt>
      <trkpt lat="47.471122" lon="7.880528">
        <ele>463.715949</ele>
        <time>2021-11-07T14:17:06.738Z</time>
      </trkpt>
      <trkpt lat="47.471056" lon="7.880271">
        <ele>461.157100</ele>
        <time>2021-11-07T14:17:08.294Z</time>
      </trkpt>
      <trkpt lat="47.470688" lon="7.879298">
        <ele>450.031940</ele>
        <time>2021-11-07T14:17:14.526Z</time>
      </trkpt>
      <trkpt lat="47.470641" lon="7.879203">
        <ele>448.857242</ele>
        <time>2021-11-07T14:17:15.181Z</time>
      </trkpt>
      <trkpt lat="47.470626" lon="7.879175">
        <ele>448.500751</ele>
        <time>2021-11-07T14:17:15.379Z</time>
      </trkpt>
      <trkpt lat="47.470496" lon="7.878920">
        <ele>445.313786</ele>
        <time>2021-11-07T14:17:17.208Z</time>
      </trkpt>
      <trkpt lat="47.470372" lon="7.878664">
        <ele>442.171244</ele>
        <time>2021-11-07T14:17:18.953Z</time>
      </trkpt>
      <trkpt lat="47.470277" lon="7.878469">
        <ele>439.772797</ele>
        <time>2021-11-07T14:17:20.335Z</time>
      </trkpt>
      <trkpt lat="47.470106" lon="7.878102">
        <ele>436.101250</ele>
        <time>2021-11-07T14:17:22.889Z</time>
      </trkpt>
      <trkpt lat="47.469549" lon="7.877073">
        <ele>429.831279</ele>
        <time>2021-11-07T14:17:30.697Z</time>
      </trkpt>
      <trkpt lat="47.469512" lon="7.877020">
        <ele>429.468897</ele>
        <time>2021-11-07T14:17:31.143Z</time>
      </trkpt>
      <trkpt lat="47.469475" lon="7.876966">
        <ele>429.103190</ele>
        <time>2021-11-07T14:17:31.637Z</time>
      </trkpt>
      <trkpt lat="47.469413" lon="7.876875">
        <ele>428.488666</ele>
        <time>2021-11-07T14:17:32.511Z</time>
      </trkpt>
      <trkpt lat="47.469384" lon="7.876836">
        <ele>428.212906</ele>
        <time>2021-11-07T14:17:32.932Z</time>
      </trkpt>
      <trkpt lat="47.469354" lon="7.876797">
        <ele>427.931899</ele>
        <time>2021-11-07T14:17:33.332Z</time>
      </trkpt>
      <trkpt lat="47.469265" lon="7.876688">
        <ele>427.118929</ele>
        <time>2021-11-07T14:17:34.438Z</time>
      </trkpt>
      <trkpt lat="47.468740" lon="7.876159">
        <ele>423.633461</ele>
        <time>2021-11-07T14:17:41.002Z</time>
      </trkpt>
      <trkpt lat="47.468698" lon="7.876140">
        <ele>423.526716</ele>
        <time>2021-11-07T14:17:41.441Z</time>
      </trkpt>
      <trkpt lat="47.468806" lon="7.875696">
        <ele>422.751452</ele>
        <time>2021-11-07T14:17:44.774Z</time>
      </trkpt>
      <trkpt lat="47.468925" lon="7.875205">
        <ele>421.894479</ele>
        <time>2021-11-07T14:17:48.484Z</time>
      </trkpt>
      <trkpt lat="47.468989" lon="7.874967">
        <ele>421.473653</ele>
        <time>2021-11-07T14:17:50.285Z</time>
      </trkpt>
      <trkpt lat="47.469050" lon="7.874738">
        <ele>421.069259</ele>
        <time>2021-11-07T14:17:52.257Z</time>
      </trkpt>
      <trkpt lat="47.469068" lon="7.874689">
        <ele>420.977636</ele>
        <time>2021-11-07T14:17:52.666Z</time>
      </trkpt>
      <trkpt lat="47.469097" lon="7.874606">
        <ele>420.824132</ele>
        <time>2021-11-07T14:17:53.317Z</time>
      </trkpt>
      <trkpt lat="47.469136" lon="7.874516">
        <ele>420.648494</ele>
        <time>2021-11-07T14:17:54.100Z</time>
      </trkpt>
      <trkpt lat="47.469173" lon="7.874432">
        <ele>420.483773</ele>
        <time>2021-11-07T14:17:54.881Z</time>
      </trkpt>
      <trkpt lat="47.469224" lon="7.874328">
        <ele>420.272681</ele>
        <time>2021-11-07T14:17:55.914Z</time>
      </trkpt>
      <trkpt lat="47.469422" lon="7.873965">
        <ele>419.574314</ele>
        <time>2021-11-07T14:17:59.344Z</time>
      </trkpt>
      <trkpt lat="47.469489" lon="7.873809">
        <ele>419.345741</ele>
        <time>2021-11-07T14:18:00.749Z</time>
      </trkpt>
      <trkpt lat="47.469626" lon="7.873477">
        <ele>418.864696</ele>
        <time>2021-11-07T14:18:03.646Z</time>
      </trkpt>
      <trkpt lat="47.469682" lon="7.873326">
        <ele>418.651695</ele>
        <time>2021-11-07T14:18:04.973Z</time>
      </trkpt>
      <trkpt lat="47.469710" lon="7.873249">
        <ele>418.543565</ele>
        <time>2021-11-07T14:18:05.565Z</time>
      </trkpt>
      <trkpt lat="47.469969" lon="7.872276">
        <ele>417.250317</ele>
        <time>2021-11-07T14:18:13.511Z</time>
      </trkpt>
      <trkpt lat="47.470156" lon="7.871491">
        <ele>416.304834</ele>
        <time>2021-11-07T14:18:19.854Z</time>
      </trkpt>
      <trkpt lat="47.470217" lon="7.871214">
        <ele>416.056592</ele>
        <time>2021-11-07T14:18:22.014Z</time>
      </trkpt>
      <trkpt lat="47.470245" lon="7.871088">
        <ele>415.943574</ele>
        <time>2021-11-07T14:18:23.029Z</time>
      </trkpt>
      <trkpt lat="47.470316" lon="7.870753">
        <ele>415.644419</ele>
        <time>2021-11-07T14:18:25.849Z</time>
      </trkpt>
      <trkpt lat="47.470333" lon="7.870669">
        <ele>415.569703</ele>
        <time>2021-11-07T14:18:26.493Z</time>
      </trkpt>
      <trkpt lat="47.470350" lon="7.870570">
        <ele>415.482666</ele>
        <time>2021-11-07T14:18:27.285Z</time>
      </trkpt>
      <trkpt lat="47.470379" lon="7.870338">
        <ele>415.281628</ele>
        <time>2021-11-07T14:18:29.230Z</time>
      </trkpt>
      <trkpt lat="47.470397" lon="7.870147">
        <ele>415.117303</ele>
        <time>2021-11-07T14:18:31.361Z</time>
      </trkpt>
      <trkpt lat="47.470378" lon="7.869626">
        <ele>414.672714</ele>
        <time>2021-11-07T14:18:37.371Z</time>
      </trkpt>
      <trkpt lat="47.470309" lon="7.869201">
        <ele>414.300273</ele>
        <time>2021-11-07T14:18:42.660Z</time>
      </trkpt>
      <trkpt lat="47.470234" lon="7.868884">
        <ele>414.108385</ele>
        <time>2021-11-07T14:18:46.714Z</time>
      </trkpt>
      <trkpt lat="47.470127" lon="7.868484">
        <ele>413.907037</ele>
        <time>2021-11-07T14:18:52.169Z</time>
      </trkpt>
      <trkpt lat="47.469915" lon="7.867494">
        <ele>413.420966</ele>
        <time>2021-11-07T14:19:05.336Z</time>
      </trkpt>
      <trkpt lat="47.469808" lon="7.866690">
        <ele>413.037425</ele>
        <time>2021-11-07T14:19:15.060Z</time>
      </trkpt>
      <trkpt lat="47.469764" lon="7.866452">
        <ele>412.855642</ele>
        <time>2021-11-07T14:19:18.068Z</time>
      </trkpt>
      <trkpt lat="47.469710" lon="7.866208">
        <ele>412.593115</ele>
        <time>2021-11-07T14:19:21.032Z</time>
      </trkpt>
      <trkpt lat="47.469629" lon="7.865918">
        <ele>412.272266</ele>
        <time>2021-11-07T14:19:24.780Z</time>
      </trkpt>
      <trkpt lat="47.469305" lon="7.864692">
        <ele>410.926247</ele>
        <time>2021-11-07T14:19:39.152Z</time>
      </trkpt>
      <trkpt lat="47.469011" lon="7.863405">
        <ele>409.442967</ele>
        <time>2021-11-07T14:19:53.853Z</time>
      </trkpt>
      <trkpt lat="47.468986" lon="7.863323">
        <ele>409.338956</ele>
        <time>2021-11-07T14:19:54.710Z</time>
      </trkpt>
      <trkpt lat="47.468943" lon="7.863195">
        <ele>409.173686</ele>
        <time>2021-11-07T14:19:56.267Z</time>
      </trkpt>
      <trkpt lat="47.468859" lon="7.862978">
        <ele>408.884550</ele>
        <time>2021-11-07T14:19:59.037Z</time>
      </trkpt>
      <trkpt lat="47.468825" lon="7.862900">
        <ele>408.777237</ele>
        <time>2021-11-07T14:19:59.988Z</time>
      </trkpt>
      <trkpt lat="47.468543" lon="7.862357">
        <ele>407.985487</ele>
        <time>2021-11-07T14:20:07.374Z</time>
      </trkpt>
      <trkpt lat="47.468224" lon="7.861805">
        <ele>407.159664</ele>
        <time>2021-11-07T14:20:15.546Z</time>
      </trkpt>
      <trkpt lat="47.467944" lon="7.861300">
        <ele>406.705304</ele>
        <time>2021-11-07T14:20:22.937Z</time>
      </trkpt>
      <trkpt lat="47.467816" lon="7.861075">
        <ele>406.500730</ele>
        <time>2021-11-07T14:20:26.411Z</time>
      </trkpt>
      <trkpt lat="47.467266" lon="7.860107">
        <ele>405.621057</ele>
        <time>2021-11-07T14:20:41.679Z</time>
      </trkpt>
      <trkpt lat="47.467047" lon="7.859682">
        <ele>405.239400</ele>
        <time>2021-11-07T14:20:47.881Z</time>
      </trkpt>
      <trkpt lat="47.466922" lon="7.859398">
        <ele>404.974620</ele>
        <time>2021-11-07T14:20:51.821Z</time>
      </trkpt>
      <trkpt lat="47.466824" lon="7.859137">
        <ele>404.741352</ele>
        <time>2021-11-07T14:20:55.563Z</time>
      </trkpt>
      <trkpt lat="47.466673" lon="7.858620">
        <ele>404.301322</ele>
        <time>2021-11-07T14:21:02.158Z</time>
      </trkpt>
      <trkpt lat="47.466576" lon="7.858236">
        <ele>403.981034</ele>
        <time>2021-11-07T14:21:06.874Z</time>
      </trkpt>
      <trkpt lat="47.466518" lon="7.858022">
        <ele>403.800894</ele>
        <time>2021-11-07T14:21:08.676Z</time>
      </trkpt>
      <trkpt lat="47.466347" lon="7.856973">
        <ele>402.833981</ele>
        <time>2021-11-07T14:21:17.110Z</time>
      </trkpt>
      <trkpt lat="47.466344" lon="7.856945">
        <ele>402.802474</ele>
        <time>2021-11-07T14:21:17.291Z</time>
      </trkpt>
      <trkpt lat="47.466322" lon="7.856655">
        <ele>402.478144</ele>
        <time>2021-11-07T14:21:19.658Z</time>
      </trkpt>
      <trkpt lat="47.466310" lon="7.856541">
        <ele>402.349918</ele>
        <time>2021-11-07T14:21:20.531Z</time>
      </trkpt>
      <trkpt lat="47.466334" lon="7.856525">
        <ele>402.306639</ele>
        <time>2021-11-07T14:21:20.840Z</time>
      </trkpt>
      <trkpt lat="47.466353" lon="7.856496">
        <ele>402.261756</ele>
        <time>2021-11-07T14:21:21.149Z</time>
      </trkpt>
      <trkpt lat="47.466361" lon="7.856459">
        <ele>402.218582</ele>
        <time>2021-11-07T14:21:21.417Z</time>
      </trkpt>
      <trkpt lat="47.466359" lon="7.856420">
        <ele>402.175113</ele>
        <time>2021-11-07T14:21:21.709Z</time>
      </trkpt>
      <trkpt lat="47.466324" lon="7.856362">
        <ele>402.088705</ele>
        <time>2021-11-07T14:21:22.346Z</time>
      </trkpt>
      <trkpt lat="47.466298" lon="7.856354">
        <ele>402.045046</ele>
        <time>2021-11-07T14:21:22.656Z</time>
      </trkpt>
      <trkpt lat="47.466295" lon="7.856234">
        <ele>401.911586</ele>
        <time>2021-11-07T14:21:23.576Z</time>
      </trkpt>
      <trkpt lat="47.466298" lon="7.855895">
        <ele>401.534789</ele>
        <time>2021-11-07T14:21:26.086Z</time>
      </trkpt>
      <trkpt lat="47.466324" lon="7.855062">
        <ele>400.608005</ele>
        <time>2021-11-07T14:21:32.464Z</time>
      </trkpt>
      <trkpt lat="47.466332" lon="7.854775">
        <ele>400.289791</ele>
        <time>2021-11-07T14:21:34.643Z</time>
      </trkpt>
      <trkpt lat="47.466338" lon="7.854554">
        <ele>400.093632</ele>
        <time>2021-11-07T14:21:36.329Z</time>
      </trkpt>
      <trkpt lat="47.466331" lon="7.853936">
        <ele>399.545464</ele>
        <time>2021-11-07T14:21:41.169Z</time>
      </trkpt>
      <trkpt lat="47.466256" lon="7.853287">
        <ele>398.961529</ele>
        <time>2021-11-07T14:21:46.431Z</time>
      </trkpt>
      <trkpt lat="47.465906" lon="7.851776">
        <ele>397.595816</ele>
        <time>2021-11-07T14:21:59.421Z</time>
      </trkpt>
      <trkpt lat="47.465871" lon="7.851620">
        <ele>397.469086</ele>
        <time>2021-11-07T14:22:00.735Z</time>
      </trkpt>
      <trkpt lat="47.465896" lon="7.851603">
        <ele>397.437705</ele>
        <time>2021-11-07T14:22:01.063Z</time>
      </trkpt>
      <trkpt lat="47.465931" lon="7.851497">
        <ele>397.346750</ele>
        <time>2021-11-07T14:22:02.055Z</time>
      </trkpt>
      <trkpt lat="47.465925" lon="7.851458">
        <ele>397.315911</ele>
        <time>2021-11-07T14:22:02.379Z</time>
      </trkpt>
      <trkpt lat="47.465914" lon="7.851427">
        <ele>397.288917</ele>
        <time>2021-11-07T14:22:02.663Z</time>
      </trkpt>
      <trkpt lat="47.465853" lon="7.851380">
        <ele>397.210474</ele>
        <time>2021-11-07T14:22:03.512Z</time>
      </trkpt>
      <trkpt lat="47.465829" lon="7.851383">
        <ele>397.183004</ele>
        <time>2021-11-07T14:22:03.798Z</time>
      </trkpt>
      <trkpt lat="47.465714" lon="7.850917">
        <ele>396.800518</ele>
        <time>2021-11-07T14:22:07.864Z</time>
      </trkpt>
      <trkpt lat="47.465620" lon="7.850585">
        <ele>396.522995</ele>
        <time>2021-11-07T14:22:10.815Z</time>
      </trkpt>
      <trkpt lat="47.465558" lon="7.850405">
        <ele>396.367235</ele>
        <time>2021-11-07T14:22:12.485Z</time>
      </trkpt>
      <trkpt lat="47.465348" lon="7.849875">
        <ele>395.893576</ele>
        <time>2021-11-07T14:22:17.380Z</time>
      </trkpt>
      <trkpt lat="47.465152" lon="7.849351">
        <ele>395.353062</ele>
        <time>2021-11-07T14:22:22.095Z</time>
      </trkpt>
      <trkpt lat="47.464952" lon="7.848443">
        <ele>394.488127</ele>
        <time>2021-11-07T14:22:29.584Z</time>
      </trkpt>
      <trkpt lat="47.464909" lon="7.848219">
        <ele>394.277227</ele>
        <time>2021-11-07T14:22:31.429Z</time>
      </trkpt>
      <trkpt lat="47.464850" lon="7.847870">
        <ele>393.951400</ele>
        <time>2021-11-07T14:22:34.230Z</time>
      </trkpt>
      <trkpt lat="47.464820" lon="7.847644">
        <ele>393.742800</ele>
        <time>2021-11-07T14:22:36.142Z</time>
      </trkpt>
      <trkpt lat="47.464784" lon="7.847333">
        <ele>393.461827</ele>
        <time>2021-11-07T14:22:38.649Z</time>
      </trkpt>
      <trkpt lat="47.464771" lon="7.847028">
        <ele>393.267571</ele>
        <time>2021-11-07T14:22:41.145Z</time>
      </trkpt>
      <trkpt lat="47.464737" lon="7.846119">
        <ele>392.688890</ele>
        <time>2021-11-07T14:22:48.458Z</time>
      </trkpt>
      <trkpt lat="47.464585" lon="7.844988">
        <ele>391.955911</ele>
        <time>2021-11-07T14:22:58.255Z</time>
      </trkpt>
      <trkpt lat="47.464433" lon="7.844273">
        <ele>391.791290</ele>
        <time>2021-11-07T14:23:04.970Z</time>
      </trkpt>
      <trkpt lat="47.464386" lon="7.844088">
        <ele>391.795155</ele>
        <time>2021-11-07T14:23:06.618Z</time>
      </trkpt>
      <trkpt lat="47.464354" lon="7.843960">
        <ele>391.797824</ele>
        <time>2021-11-07T14:23:08.021Z</time>
      </trkpt>
      <trkpt lat="47.464234" lon="7.843434">
        <ele>391.808681</ele>
        <time>2021-11-07T14:23:13.193Z</time>
      </trkpt>
      <trkpt lat="47.464176" lon="7.843178">
        <ele>391.813961</ele>
        <time>2021-11-07T14:23:15.611Z</time>
      </trkpt>
      <trkpt lat="47.464165" lon="7.843130">
        <ele>391.814952</ele>
        <time>2021-11-07T14:23:16.145Z</time>
      </trkpt>
      <trkpt lat="47.464075" lon="7.842774">
        <ele>391.822385</ele>
        <time>2021-11-07T14:23:21.037Z</time>
      </trkpt>
      <trkpt lat="47.464053" lon="7.842690">
        <ele>391.824147</ele>
        <time>2021-11-07T14:23:21.760Z</time>
      </trkpt>
      <trkpt lat="47.463971" lon="7.842355">
        <ele>391.831115</ele>
        <time>2021-11-07T14:23:26.690Z</time>
      </trkpt>
      <trkpt lat="47.463922" lon="7.842123">
        <ele>391.843222</ele>
        <time>2021-11-07T14:23:29.020Z</time>
      </trkpt>
      <trkpt lat="47.463874" lon="7.841863">
        <ele>391.869398</ele>
        <time>2021-11-07T14:23:33.226Z</time>
      </trkpt>
      <trkpt lat="47.463685" lon="7.841203">
        <ele>391.939014</ele>
        <time>2021-11-07T14:23:41.616Z</time>
      </trkpt>
      <trkpt lat="47.463616" lon="7.840992">
        <ele>391.961779</ele>
        <time>2021-11-07T14:23:44.563Z</time>
      </trkpt>
      <trkpt lat="47.463588" lon="7.840904">
        <ele>391.971225</ele>
        <time>2021-11-07T14:23:45.456Z</time>
      </trkpt>
      <trkpt lat="47.463287" lon="7.840028">
        <ele>392.066665</ele>
        <time>2021-11-07T14:23:54.197Z</time>
      </trkpt>
      <trkpt lat="47.463133" lon="7.839561">
        <ele>391.920555</ele>
        <time>2021-11-07T14:23:58.769Z</time>
      </trkpt>
      <trkpt lat="47.463043" lon="7.839292">
        <ele>391.717869</ele>
        <time>2021-11-07T14:24:01.220Z</time>
      </trkpt>
      <trkpt lat="47.462982" lon="7.839106">
        <ele>391.578262</ele>
        <time>2021-11-07T14:24:03.616Z</time>
      </trkpt>
      <trkpt lat="47.462967" lon="7.839047">
        <ele>391.535695</ele>
        <time>2021-11-07T14:24:04.100Z</time>
      </trkpt>
      <trkpt lat="47.462936" lon="7.838934">
        <ele>391.453341</ele>
        <time>2021-11-07T14:24:05.045Z</time>
      </trkpt>
      <trkpt lat="47.462883" lon="7.838488">
        <ele>391.147535</ele>
        <time>2021-11-07T14:24:08.999Z</time>
      </trkpt>
      <trkpt lat="47.462873" lon="7.838016">
        <ele>390.828631</ele>
        <time>2021-11-07T14:24:12.878Z</time>
      </trkpt>
      <trkpt lat="47.462871" lon="7.837954">
        <ele>390.786714</ele>
        <time>2021-11-07T14:24:13.326Z</time>
      </trkpt>
      <trkpt lat="47.462869" lon="7.837866">
        <ele>390.727253</ele>
        <time>2021-11-07T14:24:13.945Z</time>
      </trkpt>
      <trkpt lat="47.462865" lon="7.837711">
        <ele>390.622503</ele>
        <time>2021-11-07T14:24:15.250Z</time>
      </trkpt>
      <trkpt lat="47.462856" lon="7.837506">
        <ele>390.483772</ele>
        <time>2021-11-07T14:24:17.090Z</time>
      </trkpt>
      <trkpt lat="47.462851" lon="7.837404">
        <ele>390.414710</ele>
        <time>2021-11-07T14:24:17.799Z</time>
      </trkpt>
      <trkpt lat="47.462748" lon="7.836556">
        <ele>389.814215</ele>
        <time>2021-11-07T14:24:24.396Z</time>
      </trkpt>
      <trkpt lat="47.462730" lon="7.836472">
        <ele>389.752309</ele>
        <time>2021-11-07T14:24:25.249Z</time>
      </trkpt>
      <trkpt lat="47.462700" lon="7.836337">
        <ele>389.652474</ele>
        <time>2021-11-07T14:24:26.430Z</time>
      </trkpt>
      <trkpt lat="47.462666" lon="7.836201">
        <ele>389.550606</ele>
        <time>2021-11-07T14:24:27.637Z</time>
      </trkpt>
      <trkpt lat="47.462586" lon="7.835900">
        <ele>389.323389</ele>
        <time>2021-11-07T14:24:30.288Z</time>
      </trkpt>
      <trkpt lat="47.462388" lon="7.834991">
        <ele>388.652453</ele>
        <time>2021-11-07T14:24:38.753Z</time>
      </trkpt>
      <trkpt lat="47.462375" lon="7.834910">
        <ele>388.593966</ele>
        <time>2021-11-07T14:24:39.405Z</time>
      </trkpt>
      <trkpt lat="47.462357" lon="7.834782">
        <ele>388.502116</ele>
        <time>2021-11-07T14:24:40.407Z</time>
      </trkpt>
      <trkpt lat="47.462317" lon="7.834216">
        <ele>388.104350</ele>
        <time>2021-11-07T14:24:45.217Z</time>
      </trkpt>
      <trkpt lat="47.462296" lon="7.833933">
        <ele>387.905595</ele>
        <time>2021-11-07T14:24:47.604Z</time>
      </trkpt>
      <trkpt lat="47.462285" lon="7.833721">
        <ele>387.757157</ele>
        <time>2021-11-07T14:24:49.225Z</time>
      </trkpt>
      <trkpt lat="47.462217" lon="7.832953">
        <ele>387.216418</ele>
        <time>2021-11-07T14:24:55.584Z</time>
      </trkpt>
      <trkpt lat="47.462179" lon="7.832744">
        <ele>387.065326</ele>
        <time>2021-11-07T14:24:57.292Z</time>
      </trkpt>
      <trkpt lat="47.462262" lon="7.832704">
        <ele>386.975184</ele>
        <time>2021-11-07T14:24:58.744Z</time>
      </trkpt>
      <trkpt lat="47.462246" lon="7.832587">
        <ele>386.891849</ele>
        <time>2021-11-07T14:25:00.183Z</time>
      </trkpt>
      <trkpt lat="47.462233" lon="7.832513">
        <ele>386.838473</ele>
        <time>2021-11-07T14:25:01.118Z</time>
      </trkpt>
      <trkpt lat="47.462192" lon="7.832386">
        <ele>386.740221</ele>
        <time>2021-11-07T14:25:02.808Z</time>
      </trkpt>
      <trkpt lat="47.462176" lon="7.832337">
        <ele>386.702232</ele>
        <time>2021-11-07T14:25:03.473Z</time>
      </trkpt>
      <trkpt lat="47.462149" lon="7.832256">
        <ele>386.639184</ele>
        <time>2021-11-07T14:25:04.551Z</time>
      </trkpt>
      <trkpt lat="47.462048" lon="7.831902">
        <ele>386.318843</ele>
        <time>2021-11-07T14:25:09.122Z</time>
      </trkpt>
      <trkpt lat="47.461985" lon="7.831682">
        <ele>386.108262</ele>
        <time>2021-11-07T14:25:11.954Z</time>
      </trkpt>
      <trkpt lat="47.461795" lon="7.830905">
        <ele>385.380009</ele>
        <time>2021-11-07T14:25:21.518Z</time>
      </trkpt>
      <trkpt lat="47.461602" lon="7.829950">
        <ele>384.501484</ele>
        <time>2021-11-07T14:25:32.626Z</time>
      </trkpt>
      <trkpt lat="47.461608" lon="7.829850">
        <ele>384.412999</ele>
        <time>2021-11-07T14:25:33.698Z</time>
      </trkpt>
      <trkpt lat="47.461622" lon="7.829595">
        <ele>384.177467</ele>
        <time>2021-11-07T14:25:36.600Z</time>
      </trkpt>
      <trkpt lat="47.461625" lon="7.829509">
        <ele>384.081021</ele>
        <time>2021-11-07T14:25:37.459Z</time>
      </trkpt>
      <trkpt lat="47.461676" lon="7.828959">
        <ele>383.459272</ele>
        <time>2021-11-07T14:25:43.541Z</time>
      </trkpt>
      <trkpt lat="47.461722" lon="7.828676">
        <ele>383.133290</ele>
        <time>2021-11-07T14:25:46.713Z</time>
      </trkpt>
      <trkpt lat="47.461803" lon="7.828145">
        <ele>382.523639</ele>
        <time>2021-11-07T14:25:52.579Z</time>
      </trkpt>
      <trkpt lat="47.461984" lon="7.826457">
        <ele>380.949306</ele>
        <time>2021-11-07T14:26:11.207Z</time>
      </trkpt>
      <trkpt lat="47.462040" lon="7.826135">
        <ele>380.776030</ele>
        <time>2021-11-07T14:26:15.416Z</time>
      </trkpt>
      <trkpt lat="47.462100" lon="7.825934">
        <ele>380.661520</ele>
        <time>2021-11-07T14:26:18.000Z</time>
      </trkpt>
      <trkpt lat="47.462105" lon="7.825926">
        <ele>380.655843</ele>
        <time>2021-11-07T14:26:18.126Z</time>
      </trkpt>
      <trkpt lat="47.462225" lon="7.825725">
        <ele>380.516093</ele>
        <time>2021-11-07T14:26:21.736Z</time>
      </trkpt>
      <trkpt lat="47.462519" lon="7.825555">
        <ele>380.272760</ele>
        <time>2021-11-07T14:26:27.635Z</time>
      </trkpt>
      <trkpt lat="47.462524" lon="7.825545">
        <ele>380.266278</ele>
        <time>2021-11-07T14:26:27.798Z</time>
      </trkpt>
      <trkpt lat="47.462604" lon="7.825402">
        <ele>380.169547</ele>
        <time>2021-11-07T14:26:30.254Z</time>
      </trkpt>
      <trkpt lat="47.462617" lon="7.825344">
        <ele>380.137702</ele>
        <time>2021-11-07T14:26:30.909Z</time>
      </trkpt>
      <trkpt lat="47.462626" lon="7.825283">
        <ele>380.105163</ele>
        <time>2021-11-07T14:26:31.673Z</time>
      </trkpt>
      <trkpt lat="47.462608" lon="7.825120">
        <ele>380.019090</ele>
        <time>2021-11-07T14:26:33.905Z</time>
      </trkpt>
      <trkpt lat="47.462540" lon="7.824993">
        <ele>379.934660</ele>
        <time>2021-11-07T14:26:36.059Z</time>
      </trkpt>
      <trkpt lat="47.462517" lon="7.824972">
        <ele>379.913825</ele>
        <time>2021-11-07T14:26:36.572Z</time>
      </trkpt>
      <trkpt lat="47.462476" lon="7.824944">
        <ele>379.879014</ele>
        <time>2021-11-07T14:26:37.388Z</time>
      </trkpt>
      <trkpt lat="47.462402" lon="7.824900">
        <ele>379.837586</ele>
        <time>2021-11-07T14:26:38.758Z</time>
      </trkpt>
      <trkpt lat="47.462349" lon="7.824857">
        <ele>379.813771</ele>
        <time>2021-11-07T14:26:39.991Z</time>
      </trkpt>
      <trkpt lat="47.462317" lon="7.824823">
        <ele>379.798249</ele>
        <time>2021-11-07T14:26:40.769Z</time>
      </trkpt>
      <trkpt lat="47.462262" lon="7.824736">
        <ele>379.766524</ele>
        <time>2021-11-07T14:26:42.357Z</time>
      </trkpt>
      <trkpt lat="47.462242" lon="7.824692">
        <ele>379.752402</ele>
        <time>2021-11-07T14:26:43.057Z</time>
      </trkpt>
      <trkpt lat="47.462217" lon="7.824625">
        <ele>379.732019</ele>
        <time>2021-11-07T14:26:44.040Z</time>
      </trkpt>
      <trkpt lat="47.462137" lon="7.823536">
        <ele>379.440254</ele>
        <time>2021-11-07T14:26:58.271Z</time>
      </trkpt>
      <trkpt lat="47.462017" lon="7.821859">
        <ele>378.836159</ele>
        <time>2021-11-07T14:27:19.630Z</time>
      </trkpt>
      <trkpt lat="47.461957" lon="7.821317">
        <ele>378.547205</ele>
        <time>2021-11-07T14:27:26.179Z</time>
      </trkpt>
      <trkpt lat="47.461915" lon="7.820994">
        <ele>378.374153</ele>
        <time>2021-11-07T14:27:30.000Z</time>
      </trkpt>
      <trkpt lat="47.461850" lon="7.820572">
        <ele>378.146441</ele>
        <time>2021-11-07T14:27:35.077Z</time>
      </trkpt>
      <trkpt lat="47.461826" lon="7.820279">
        <ele>377.991161</ele>
        <time>2021-11-07T14:27:38.594Z</time>
      </trkpt>
      <trkpt lat="47.461829" lon="7.819984">
        <ele>377.835937</ele>
        <time>2021-11-07T14:27:42.039Z</time>
      </trkpt>
      <trkpt lat="47.461852" lon="7.819816">
        <ele>377.747107</ele>
        <time>2021-11-07T14:27:44.072Z</time>
      </trkpt>
      <trkpt lat="47.461962" lon="7.819234">
        <ele>377.524781</ele>
        <time>2021-11-07T14:27:51.349Z</time>
      </trkpt>
      <trkpt lat="47.461960" lon="7.819120">
        <ele>377.482826</ele>
        <time>2021-11-07T14:27:52.690Z</time>
      </trkpt>
      <trkpt lat="47.462012" lon="7.818948">
        <ele>377.413509</ele>
        <time>2021-11-07T14:27:54.307Z</time>
      </trkpt>
      <trkpt lat="47.462122" lon="7.818441">
        <ele>377.217616</ele>
        <time>2021-11-07T14:27:58.949Z</time>
      </trkpt>
      <trkpt lat="47.462262" lon="7.817447">
        <ele>376.844075</ele>
        <time>2021-11-07T14:28:08.301Z</time>
      </trkpt>
      <trkpt lat="47.462434" lon="7.816598">
        <ele>376.728003</ele>
        <time>2021-11-07T14:28:17.093Z</time>
      </trkpt>
      <trkpt lat="47.462785" lon="7.815763">
        <ele>376.665939</ele>
        <time>2021-11-07T14:28:26.820Z</time>
      </trkpt>
      <trkpt lat="47.462859" lon="7.815548">
        <ele>376.650711</ele>
        <time>2021-11-07T14:28:29.386Z</time>
      </trkpt>
      <trkpt lat="47.462865" lon="7.815524">
        <ele>376.649095</ele>
        <time>2021-11-07T14:28:29.668Z</time>
      </trkpt>
      <trkpt lat="47.462867" lon="7.815468">
        <ele>376.645556</ele>
        <time>2021-11-07T14:28:30.194Z</time>
      </trkpt>
      <trkpt lat="47.462863" lon="7.815440">
        <ele>376.643749</ele>
        <time>2021-11-07T14:28:30.503Z</time>
      </trkpt>
      <trkpt lat="47.462902" lon="7.815377">
        <ele>376.638357</ele>
        <time>2021-11-07T14:28:31.543Z</time>
      </trkpt>
      <trkpt lat="47.463209" lon="7.814244">
        <ele>376.435652</ele>
        <time>2021-11-07T14:28:47.714Z</time>
      </trkpt>
      <trkpt lat="47.463323" lon="7.813790">
        <ele>376.314169</ele>
        <time>2021-11-07T14:28:54.094Z</time>
      </trkpt>
      <trkpt lat="47.463516" lon="7.813197">
        <ele>376.149082</ele>
        <time>2021-11-07T14:29:02.715Z</time>
      </trkpt>
      <trkpt lat="47.463585" lon="7.813014">
        <ele>376.096522</ele>
        <time>2021-11-07T14:29:05.350Z</time>
      </trkpt>
      <trkpt lat="47.463671" lon="7.812852">
        <ele>376.044855</ele>
        <time>2021-11-07T14:29:07.877Z</time>
      </trkpt>
      <trkpt lat="47.463905" lon="7.812397">
        <ele>375.892060</ele>
        <time>2021-11-07T14:29:14.642Z</time>
      </trkpt>
      <trkpt lat="47.463958" lon="7.812269">
        <ele>375.844235</ele>
        <time>2021-11-07T14:29:16.533Z</time>
      </trkpt>
      <trkpt lat="47.464174" lon="7.811536">
        <ele>375.589460</ele>
        <time>2021-11-07T14:29:26.164Z</time>
      </trkpt>
      <trkpt lat="47.464316" lon="7.810976">
        <ele>375.398892</ele>
        <time>2021-11-07T14:29:33.629Z</time>
      </trkpt>
      <trkpt lat="47.464325" lon="7.810936">
        <ele>375.385460</ele>
        <time>2021-11-07T14:29:34.077Z</time>
      </trkpt>
      <trkpt lat="47.464370" lon="7.810752">
        <ele>375.323115</ele>
        <time>2021-11-07T14:29:36.751Z</time>
      </trkpt>
      <trkpt lat="47.464364" lon="7.810630">
        <ele>375.284140</ele>
        <time>2021-11-07T14:29:38.277Z</time>
      </trkpt>
      <trkpt lat="47.464385" lon="7.810619">
        <ele>375.273640</ele>
        <time>2021-11-07T14:29:38.537Z</time>
      </trkpt>
      <trkpt lat="47.464417" lon="7.810573">
        <ele>375.252610</ele>
        <time>2021-11-07T14:29:39.333Z</time>
      </trkpt>
      <trkpt lat="47.464452" lon="7.810429">
        <ele>375.203853</ele>
        <time>2021-11-07T14:29:40.771Z</time>
      </trkpt>
      <trkpt lat="47.464510" lon="7.810204">
        <ele>375.127128</ele>
        <time>2021-11-07T14:29:43.169Z</time>
      </trkpt>
      <trkpt lat="47.464553" lon="7.810043">
        <ele>375.089296</ele>
        <time>2021-11-07T14:29:44.979Z</time>
      </trkpt>
      <trkpt lat="47.464574" lon="7.809967">
        <ele>375.090549</ele>
        <time>2021-11-07T14:29:45.703Z</time>
      </trkpt>
      <trkpt lat="47.464595" lon="7.809881">
        <ele>375.091944</ele>
        <time>2021-11-07T14:29:46.677Z</time>
      </trkpt>
      <trkpt lat="47.464602" lon="7.809851">
        <ele>375.092429</ele>
        <time>2021-11-07T14:29:47.035Z</time>
      </trkpt>
      <trkpt lat="47.464662" lon="7.809564">
        <ele>375.097012</ele>
        <time>2021-11-07T14:29:50.218Z</time>
      </trkpt>
      <trkpt lat="47.464811" lon="7.808597">
        <ele>375.112146</ele>
        <time>2021-11-07T14:30:00.065Z</time>
      </trkpt>
      <trkpt lat="47.464826" lon="7.808468">
        <ele>375.114143</ele>
        <time>2021-11-07T14:30:01.487Z</time>
      </trkpt>
      <trkpt lat="47.464869" lon="7.807851">
        <ele>375.123607</ele>
        <time>2021-11-07T14:30:07.924Z</time>
      </trkpt>
      <trkpt lat="47.464860" lon="7.807604">
        <ele>375.127382</ele>
        <time>2021-11-07T14:30:10.529Z</time>
      </trkpt>
      <trkpt lat="47.464839" lon="7.807091">
        <ele>374.800369</ele>
        <time>2021-11-07T14:30:15.772Z</time>
      </trkpt>
      <trkpt lat="47.464820" lon="7.806610">
        <ele>374.405671</ele>
        <time>2021-11-07T14:30:20.425Z</time>
      </trkpt>
      <trkpt lat="47.464830" lon="7.806346">
        <ele>374.189068</ele>
        <time>2021-11-07T14:30:22.795Z</time>
      </trkpt>
      <trkpt lat="47.464852" lon="7.806188">
        <ele>374.056921</ele>
        <time>2021-11-07T14:30:24.174Z</time>
      </trkpt>
      <trkpt lat="47.464879" lon="7.806011">
        <ele>373.908281</ele>
        <time>2021-11-07T14:30:25.643Z</time>
      </trkpt>
      <trkpt lat="47.465361" lon="7.804383">
        <ele>372.003221</ele>
        <time>2021-11-07T14:30:38.469Z</time>
      </trkpt>
      <trkpt lat="47.465464" lon="7.803785">
        <ele>371.041091</ele>
        <time>2021-11-07T14:30:42.880Z</time>
      </trkpt>
      <trkpt lat="47.465562" lon="7.802933">
        <ele>369.693647</ele>
        <time>2021-11-07T14:30:49.110Z</time>
      </trkpt>
      <trkpt lat="47.465594" lon="7.802678">
        <ele>369.289285</ele>
        <time>2021-11-07T14:30:51.019Z</time>
      </trkpt>
      <trkpt lat="47.465633" lon="7.802373">
        <ele>368.805329</ele>
        <time>2021-11-07T14:30:53.292Z</time>
      </trkpt>
      <trkpt lat="47.465735" lon="7.801577">
        <ele>367.995805</ele>
        <time>2021-11-07T14:30:59.278Z</time>
      </trkpt>
      <trkpt lat="47.465866" lon="7.800659">
        <ele>367.059920</ele>
        <time>2021-11-07T14:31:06.743Z</time>
      </trkpt>
      <trkpt lat="47.465982" lon="7.800275">
        <ele>366.640377</ele>
        <time>2021-11-07T14:31:10.268Z</time>
      </trkpt>
      <trkpt lat="47.466033" lon="7.800108">
        <ele>366.457587</ele>
        <time>2021-11-07T14:31:11.831Z</time>
      </trkpt>
      <trkpt lat="47.466090" lon="7.800039">
        <ele>366.348909</ele>
        <time>2021-11-07T14:31:12.694Z</time>
      </trkpt>
      <trkpt lat="47.466042" lon="7.799777">
        <ele>366.083076</ele>
        <time>2021-11-07T14:31:32.514Z</time>
      </trkpt>
      <trkpt lat="47.466172" lon="7.799019">
        <ele>365.358499</ele>
        <time>2021-11-07T14:32:28.927Z</time>
      </trkpt>
      <trkpt lat="47.466186" lon="7.797669">
        <ele>364.107507</ele>
        <time>2021-11-07T14:34:05.210Z</time>
      </trkpt>
      <trkpt lat="47.466430" lon="7.795789">
        <ele>362.763576</ele>
        <time>2021-11-07T14:36:22.478Z</time>
      </trkpt>
      <trkpt lat="47.466774" lon="7.793016">
        <ele>361.881781</ele>
        <time>2021-11-07T14:39:51.995Z</time>
      </trkpt>
      <trkpt lat="47.467163" lon="7.789876">
        <ele>361.801594</ele>
        <time>2021-11-07T14:43:54.273Z</time>
      </trkpt>
      <trkpt lat="47.467228" lon="7.789417">
        <ele>361.801220</ele>
        <time>2021-11-07T14:44:00.188Z</time>
      </trkpt>
      <trkpt lat="47.467240" lon="7.789331">
        <ele>361.752453</ele>
        <time>2021-11-07T14:44:01.152Z</time>
      </trkpt>
      <trkpt lat="47.467307" lon="7.788932">
        <ele>361.274692</ele>
        <time>2021-11-07T14:44:06.141Z</time>
      </trkpt>
      <trkpt lat="47.467339" lon="7.788734">
        <ele>361.038115</ele>
        <time>2021-11-07T14:44:08.268Z</time>
      </trkpt>
      <trkpt lat="47.467451" lon="7.788042">
        <ele>360.211229</ele>
        <time>2021-11-07T14:44:16.168Z</time>
      </trkpt>
      <trkpt lat="47.467504" lon="7.787622">
        <ele>359.714726</ele>
        <time>2021-11-07T14:44:20.557Z</time>
      </trkpt>
      <trkpt lat="47.467538" lon="7.787352">
        <ele>359.395568</ele>
        <time>2021-11-07T14:44:23.458Z</time>
      </trkpt>
      <trkpt lat="47.467566" lon="7.787128">
        <ele>359.130850</ele>
        <time>2021-11-07T14:44:25.724Z</time>
      </trkpt>
      <trkpt lat="47.467577" lon="7.787046">
        <ele>359.033702</ele>
        <time>2021-11-07T14:44:26.584Z</time>
      </trkpt>
      <trkpt lat="47.467559" lon="7.786904">
        <ele>358.865811</ele>
        <time>2021-11-07T14:44:28.259Z</time>
      </trkpt>
      <trkpt lat="47.467636" lon="7.786830">
        <ele>358.707906</ele>
        <time>2021-11-07T14:44:29.561Z</time>
      </trkpt>
      <trkpt lat="47.468403" lon="7.786854">
        <ele>357.329527</ele>
        <time>2021-11-07T14:44:41.755Z</time>
      </trkpt>
      <trkpt lat="47.468535" lon="7.786880">
        <ele>357.090269</ele>
        <time>2021-11-07T14:44:43.909Z</time>
      </trkpt>
      <trkpt lat="47.468582" lon="7.786483">
        <ele>356.600750</ele>
        <time>2021-11-07T14:44:48.314Z</time>
      </trkpt>
      <trkpt lat="47.468800" lon="7.784631">
        <ele>354.731724</ele>
        <time>2021-11-07T14:45:09.118Z</time>
      </trkpt>
      <trkpt lat="47.468831" lon="7.784400">
        <ele>354.547809</ele>
        <time>2021-11-07T14:45:11.847Z</time>
      </trkpt>
      <trkpt lat="47.469211" lon="7.782028">
        <ele>352.791411</ele>
        <time>2021-11-07T14:45:40.745Z</time>
      </trkpt>
      <trkpt lat="47.469352" lon="7.781141">
        <ele>352.218517</ele>
        <time>2021-11-07T14:45:51.873Z</time>
      </trkpt>
      <trkpt lat="47.469631" lon="7.779469">
        <ele>350.567681</ele>
        <time>2021-11-07T14:46:11.667Z</time>
      </trkpt>
      <trkpt lat="47.469866" lon="7.778066">
        <ele>348.785635</ele>
        <time>2021-11-07T14:46:27.007Z</time>
      </trkpt>
      <trkpt lat="47.469958" lon="7.776819">
        <ele>346.997692</ele>
        <time>2021-11-07T14:46:39.850Z</time>
      </trkpt>
      <trkpt lat="47.470028" lon="7.775062">
        <ele>344.447471</ele>
        <time>2021-11-07T14:46:58.277Z</time>
      </trkpt>
      <trkpt lat="47.470034" lon="7.774910">
        <ele>344.326157</ele>
        <time>2021-11-07T14:46:59.891Z</time>
      </trkpt>
      <trkpt lat="47.470122" lon="7.772830">
        <ele>342.665649</ele>
        <time>2021-11-07T14:47:24.355Z</time>
      </trkpt>
      <trkpt lat="47.470261" lon="7.772145">
        <ele>342.060510</ele>
        <time>2021-11-07T14:47:32.887Z</time>
      </trkpt>
      <trkpt lat="47.470499" lon="7.771171">
        <ele>341.136311</ele>
        <time>2021-11-07T14:47:44.978Z</time>
      </trkpt>
      <trkpt lat="47.470712" lon="7.770050">
        <ele>340.097215</ele>
        <time>2021-11-07T14:47:57.818Z</time>
      </trkpt>
      <trkpt lat="47.470854" lon="7.769162">
        <ele>338.978483</ele>
        <time>2021-11-07T14:48:07.788Z</time>
      </trkpt>
      <trkpt lat="47.470868" lon="7.769055">
        <ele>338.840815</ele>
        <time>2021-11-07T14:48:08.848Z</time>
      </trkpt>
      <trkpt lat="47.470979" lon="7.768192">
        <ele>337.731145</ele>
        <time>2021-11-07T14:48:17.998Z</time>
      </trkpt>
      <trkpt lat="47.471145" lon="7.767252">
        <ele>336.716746</ele>
        <time>2021-11-07T14:48:28.381Z</time>
      </trkpt>
      <trkpt lat="47.471145" lon="7.767252">
        <ele>336.716746</ele>
        <time>2021-11-07T14:48:28.514Z</time>
      </trkpt>
      <trkpt lat="47.471145" lon="7.767252">
        <ele>336.716746</ele>
        <time>2021-11-07T14:48:28.524Z</time>
      </trkpt>
      <trkpt lat="47.471489" lon="7.767465">
        <ele>337.004916</ele>
        <time>2021-11-07T14:48:33.226Z</time>
      </trkpt>
      <trkpt lat="47.471760" lon="7.767638">
        <ele>337.232996</ele>
        <time>2021-11-07T14:48:37.866Z</time>
      </trkpt>
      <trkpt lat="47.472050" lon="7.767821">
        <ele>337.476628</ele>
        <time>2021-11-07T14:48:43.495Z</time>
      </trkpt>
      <trkpt lat="47.472121" lon="7.767867">
        <ele>337.536523</ele>
        <time>2021-11-07T14:48:45.374Z</time>
      </trkpt>
      <trkpt lat="47.472271" lon="7.767979">
        <ele>337.666362</ele>
        <time>2021-11-07T14:48:48.666Z</time>
      </trkpt>
      <trkpt lat="47.472412" lon="7.768062">
        <ele>337.783628</ele>
        <time>2021-11-07T14:48:52.319Z</time>
      </trkpt>
      <trkpt lat="47.472685" lon="7.768157">
        <ele>338.000346</ele>
        <time>2021-11-07T14:48:58.200Z</time>
      </trkpt>
      <trkpt lat="47.472693" lon="7.768159">
        <ele>338.006615</ele>
        <time>2021-11-07T14:48:58.813Z</time>
      </trkpt>
      <trkpt lat="47.472772" lon="7.768203">
        <ele>338.220572</ele>
        <time>2021-11-07T14:49:01.104Z</time>
      </trkpt>
      <trkpt lat="47.472779" lon="7.768229">
        <ele>338.314356</ele>
        <time>2021-11-07T14:49:01.658Z</time>
      </trkpt>
      <trkpt lat="47.472804" lon="7.768269">
        <ele>338.496917</ele>
        <time>2021-11-07T14:49:02.554Z</time>
      </trkpt>
      <trkpt lat="47.472821" lon="7.768281">
        <ele>338.590298</ele>
        <time>2021-11-07T14:49:03.176Z</time>
      </trkpt>
      <trkpt lat="47.472786" lon="7.768446">
        <ele>339.169807</ele>
        <time>2021-11-07T14:49:06.141Z</time>
      </trkpt>
      <trkpt lat="47.472725" lon="7.768743">
        <ele>340.209999</ele>
        <time>2021-11-07T14:49:12.702Z</time>
      </trkpt>
      <trkpt lat="47.472681" lon="7.769085">
        <ele>341.376633</ele>
        <time>2021-11-07T14:49:20.390Z</time>
      </trkpt>
      <trkpt lat="47.472845" lon="7.769105">
        <ele>342.192437</ele>
        <time>2021-11-07T14:49:26.325Z</time>
      </trkpt>
      <trkpt lat="47.473281" lon="7.769280">
        <ele>344.432091</ele>
        <time>2021-11-07T14:49:43.193Z</time>
      </trkpt>
      <trkpt lat="47.473515" lon="7.769442">
        <ele>345.712905</ele>
        <time>2021-11-07T14:49:52.500Z</time>
      </trkpt>
      <trkpt lat="47.473787" lon="7.769648">
        <ele>347.434157</ele>
        <time>2021-11-07T14:50:03.765Z</time>
      </trkpt>
      <trkpt lat="47.473844" lon="7.769703">
        <ele>348.032826</ele>
        <time>2021-11-07T14:50:07.261Z</time>
      </trkpt>
      <trkpt lat="47.473893" lon="7.769749">
        <ele>348.543351</ele>
        <time>2021-11-07T14:50:10.443Z</time>
      </trkpt>
      <trkpt lat="47.473962" lon="7.769836">
        <ele>349.340902</ele>
        <time>2021-11-07T14:50:14.334Z</time>
      </trkpt>
      <trkpt lat="47.473979" lon="7.769978">
        <ele>350.198416</ele>
        <time>2021-11-07T14:50:18.174Z</time>
      </trkpt>
      <trkpt lat="47.473954" lon="7.770162">
        <ele>351.314417</ele>
        <time>2021-11-07T14:50:24.591Z</time>
      </trkpt>
      <trkpt lat="47.473938" lon="7.770245">
        <ele>351.827637</ele>
        <time>2021-11-07T14:50:27.957Z</time>
      </trkpt>
      <trkpt lat="47.473948" lon="7.770383">
        <ele>352.652926</ele>
        <time>2021-11-07T14:50:31.950Z</time>
      </trkpt>
      <trkpt lat="47.474083" lon="7.771488">
        <ele>359.330027</ele>
        <time>2021-11-07T14:51:10.144Z</time>
      </trkpt>
      <trkpt lat="47.474104" lon="7.771595">
        <ele>359.992556</ele>
        <time>2021-11-07T14:51:14.127Z</time>
      </trkpt>
      <trkpt lat="47.474185" lon="7.771812">
        <ele>361.466577</ele>
        <time>2021-11-07T14:51:25.978Z</time>
      </trkpt>
      <trkpt lat="47.474415" lon="7.772041">
        <ele>364.203294</ele>
        <time>2021-11-07T14:51:41.622Z</time>
      </trkpt>
      <trkpt lat="47.475019" lon="7.772425">
        <ele>371.523122</ele>
        <time>2021-11-07T14:52:18.741Z</time>
      </trkpt>
      <trkpt lat="47.475466" lon="7.772645">
        <ele>376.768369</ele>
        <time>2021-11-07T14:52:48.144Z</time>
      </trkpt>
      <trkpt lat="47.475728" lon="7.772690">
        <ele>379.705176</ele>
        <time>2021-11-07T14:53:03.298Z</time>
      </trkpt>
      <trkpt lat="47.476546" lon="7.772768">
        <ele>389.800009</ele>
        <time>2021-11-07T14:53:54.175Z</time>
      </trkpt>
      <trkpt lat="47.476849" lon="7.772776">
        <ele>393.716772</ele>
        <time>2021-11-07T14:54:13.823Z</time>
      </trkpt>
      <trkpt lat="47.477573" lon="7.772824">
        <ele>403.083538</ele>
        <time>2021-11-07T14:54:59.459Z</time>
      </trkpt>
      <trkpt lat="47.478443" lon="7.772824">
        <ele>418.209072</ele>
        <time>2021-11-07T14:56:10.011Z</time>
      </trkpt>
      <trkpt lat="47.478820" lon="7.772738">
        <ele>425.452954</ele>
        <time>2021-11-07T14:56:48.107Z</time>
      </trkpt>
      <trkpt lat="47.479168" lon="7.772609">
        <ele>432.265778</ele>
        <time>2021-11-07T14:57:22.626Z</time>
      </trkpt>
      <trkpt lat="47.479313" lon="7.772352">
        <ele>436.562555</ele>
        <time>2021-11-07T14:57:46.261Z</time>
      </trkpt>
      <trkpt lat="47.479508" lon="7.771873">
        <ele>443.450409</ele>
        <time>2021-11-07T14:58:24.301Z</time>
      </trkpt>
      <trkpt lat="47.479678" lon="7.771357">
        <ele>450.213852</ele>
        <time>2021-11-07T14:59:01.156Z</time>
      </trkpt>
      <trkpt lat="47.479951" lon="7.770850">
        <ele>457.851443</ele>
        <time>2021-11-07T14:59:38.276Z</time>
      </trkpt>
      <trkpt lat="47.480156" lon="7.770553">
        <ele>462.853099</ele>
        <time>2021-11-07T15:00:02.462Z</time>
      </trkpt>
      <trkpt lat="47.480388" lon="7.770295">
        <ele>467.912509</ele>
        <time>2021-11-07T15:00:24.890Z</time>
      </trkpt>
      <trkpt lat="47.480692" lon="7.770102">
        <ele>472.973535</ele>
        <time>2021-11-07T15:00:48.780Z</time>
      </trkpt>
      <trkpt lat="47.481483" lon="7.769920">
        <ele>482.258720</ele>
        <time>2021-11-07T15:01:36.278Z</time>
      </trkpt>
      <trkpt lat="47.481815" lon="7.769904">
        <ele>486.111676</ele>
        <time>2021-11-07T15:01:52.764Z</time>
      </trkpt>
      <trkpt lat="47.482031" lon="7.769953">
        <ele>488.646363</ele>
        <time>2021-11-07T15:02:04.474Z</time>
      </trkpt>
      <trkpt lat="47.482572" lon="7.770227">
        <ele>495.913163</ele>
        <time>2021-11-07T15:02:39.341Z</time>
      </trkpt>
      <trkpt lat="47.482997" lon="7.770807">
        <ele>504.113799</ele>
        <time>2021-11-07T15:03:23.642Z</time>
      </trkpt>
      <trkpt lat="47.483200" lon="7.771322">
        <ele>509.828798</ele>
        <time>2021-11-07T15:03:55.058Z</time>
      </trkpt>
      <trkpt lat="47.483339" lon="7.771802">
        <ele>514.834549</ele>
        <time>2021-11-07T15:04:21.893Z</time>
      </trkpt>
      <trkpt lat="47.483458" lon="7.772106">
        <ele>518.121611</ele>
        <time>2021-11-07T15:04:39.088Z</time>
      </trkpt>
      <trkpt lat="47.483577" lon="7.772266">
        <ele>519.688068</ele>
        <time>2021-11-07T15:04:50.468Z</time>
      </trkpt>
      <trkpt lat="47.483809" lon="7.772652">
        <ele>523.089141</ele>
        <time>2021-11-07T15:05:13.752Z</time>
      </trkpt>
      <trkpt lat="47.484099" lon="7.773038">
        <ele>526.889252</ele>
        <time>2021-11-07T15:05:37.594Z</time>
      </trkpt>
      <trkpt lat="47.484250" lon="7.773244">
        <ele>528.890154</ele>
        <time>2021-11-07T15:05:49.417Z</time>
      </trkpt>
      <trkpt lat="47.484389" lon="7.773424">
        <ele>530.689672</ele>
        <time>2021-11-07T15:05:58.674Z</time>
      </trkpt>
      <trkpt lat="47.484679" lon="7.773897">
        <ele>534.894445</ele>
        <time>2021-11-07T15:06:13.889Z</time>
      </trkpt>
      <trkpt lat="47.485317" lon="7.774412">
        <ele>537.177567</ele>
        <time>2021-11-07T15:06:33.530Z</time>
      </trkpt>
      <trkpt lat="47.485752" lon="7.774626">
        <ele>538.350926</ele>
        <time>2021-11-07T15:06:44.796Z</time>
      </trkpt>
      <trkpt lat="47.485895" lon="7.774732">
        <ele>538.760309</ele>
        <time>2021-11-07T15:06:47.321Z</time>
      </trkpt>
      <trkpt lat="47.486126" lon="7.774937">
        <ele>539.449761</ele>
        <time>2021-11-07T15:06:52.680Z</time>
      </trkpt>
      <trkpt lat="47.486120" lon="7.775142">
        <ele>539.804686</ele>
        <time>2021-11-07T15:06:55.902Z</time>
      </trkpt>
      <trkpt lat="47.486123" lon="7.775346">
        <ele>540.112722</ele>
        <time>2021-11-07T15:06:59.123Z</time>
      </trkpt>
      <trkpt lat="47.486221" lon="7.775747">
        <ele>540.463815</ele>
        <time>2021-11-07T15:07:04.850Z</time>
      </trkpt>
      <trkpt lat="47.486352" lon="7.776140">
        <ele>540.824617</ele>
        <time>2021-11-07T15:07:10.801Z</time>
      </trkpt>
      <trkpt lat="47.486453" lon="7.776445">
        <ele>541.104270</ele>
        <time>2021-11-07T15:07:15.207Z</time>
      </trkpt>
      <trkpt lat="47.487907" lon="7.778783">
        <ele>542.863519</ele>
        <time>2021-11-07T15:07:56.428Z</time>
      </trkpt>
      <trkpt lat="47.488606" lon="7.780818">
        <ele>542.602802</ele>
        <time>2021-11-07T15:08:16.498Z</time>
      </trkpt>
      <trkpt lat="47.488675" lon="7.780934">
        <ele>542.540210</ele>
        <time>2021-11-07T15:08:17.911Z</time>
      </trkpt>
      <trkpt lat="47.488777" lon="7.781083">
        <ele>542.454307</ele>
        <time>2021-11-07T15:08:19.570Z</time>
      </trkpt>
      <trkpt lat="47.489037" lon="7.781447">
        <ele>542.239786</ele>
        <time>2021-11-07T15:08:24.073Z</time>
      </trkpt>
      <trkpt lat="47.489418" lon="7.781971">
        <ele>542.335301</ele>
        <time>2021-11-07T15:08:30.716Z</time>
      </trkpt>
      <trkpt lat="47.490287" lon="7.783171">
        <ele>543.436539</ele>
        <time>2021-11-07T15:08:51.855Z</time>
      </trkpt>
      <trkpt lat="47.490527" lon="7.783532">
        <ele>543.753602</ele>
        <time>2021-11-07T15:09:00.164Z</time>
      </trkpt>
      <trkpt lat="47.490609" lon="7.783692">
        <ele>544.586989</ele>
        <time>2021-11-07T15:09:03.185Z</time>
      </trkpt>
      <trkpt lat="47.490633" lon="7.783833">
        <ele>545.194166</ele>
        <time>2021-11-07T15:09:06.306Z</time>
      </trkpt>
      <trkpt lat="47.490689" lon="7.784199">
        <ele>546.761189</ele>
        <time>2021-11-07T15:09:12.429Z</time>
      </trkpt>
      <trkpt lat="47.490723" lon="7.784422">
        <ele>547.715795</ele>
        <time>2021-11-07T15:09:18.191Z</time>
      </trkpt>
      <trkpt lat="47.490860" lon="7.785128">
        <ele>550.783041</ele>
        <time>2021-11-07T15:09:38.009Z</time>
      </trkpt>
      <trkpt lat="47.490876" lon="7.785414">
        <ele>551.981392</ele>
        <time>2021-11-07T15:09:47.242Z</time>
      </trkpt>
      <trkpt lat="47.490808" lon="7.785962">
        <ele>554.307971</ele>
        <time>2021-11-07T15:10:06.137Z</time>
      </trkpt>
      <trkpt lat="47.490637" lon="7.786369">
        <ele>557.115977</ele>
        <time>2021-11-07T15:10:24.636Z</time>
      </trkpt>
      <trkpt lat="47.490588" lon="7.786449">
        <ele>557.819545</ele>
        <time>2021-11-07T15:10:29.738Z</time>
      </trkpt>
      <trkpt lat="47.490524" lon="7.786562">
        <ele>558.780299</ele>
        <time>2021-11-07T15:10:34.375Z</time>
      </trkpt>
      <trkpt lat="47.490217" lon="7.787045">
        <ele>563.101132</ele>
        <time>2021-11-07T15:10:59.102Z</time>
      </trkpt>
      <trkpt lat="47.489788" lon="7.787865">
        <ele>569.858655</ele>
        <time>2021-11-07T15:11:37.185Z</time>
      </trkpt>
      <trkpt lat="47.489723" lon="7.788036">
        <ele>571.137116</ele>
        <time>2021-11-07T15:11:45.586Z</time>
      </trkpt>
      <trkpt lat="47.489691" lon="7.788200">
        <ele>572.232136</ele>
        <time>2021-11-07T15:11:51.606Z</time>
      </trkpt>
      <trkpt lat="47.489663" lon="7.788691">
        <ele>573.852836</ele>
        <time>2021-11-07T15:12:07.930Z</time>
      </trkpt>
      <trkpt lat="47.489823" lon="7.789549">
        <ele>576.780394</ele>
        <time>2021-11-07T15:12:30.677Z</time>
      </trkpt>
      <trkpt lat="47.489925" lon="7.791008">
        <ele>580.933333</ele>
        <time>2021-11-07T15:12:55.142Z</time>
      </trkpt>
      <trkpt lat="47.489971" lon="7.791599">
        <ele>580.821877</ele>
        <time>2021-11-07T15:13:02.106Z</time>
      </trkpt>
      <trkpt lat="47.489987" lon="7.791819">
        <ele>580.780421</ele>
        <time>2021-11-07T15:13:04.598Z</time>
      </trkpt>
      <trkpt lat="47.490118" lon="7.793776">
        <ele>579.457009</ele>
        <time>2021-11-07T15:13:21.391Z</time>
      </trkpt>
      <trkpt lat="47.490137" lon="7.796120">
        <ele>571.890492</ele>
        <time>2021-11-07T15:13:36.217Z</time>
      </trkpt>
      <trkpt lat="47.490229" lon="7.796508">
        <ele>569.654649</ele>
        <time>2021-11-07T15:13:38.660Z</time>
      </trkpt>
      <trkpt lat="47.490482" lon="7.797579">
        <ele>563.463610</ele>
        <time>2021-11-07T15:13:45.396Z</time>
      </trkpt>
      <trkpt lat="47.490613" lon="7.798182">
        <ele>560.007311</ele>
        <time>2021-11-07T15:13:49.104Z</time>
      </trkpt>
      <trkpt lat="47.490919" lon="7.798941">
        <ele>555.991695</ele>
        <time>2021-11-07T15:13:54.331Z</time>
      </trkpt>
      <trkpt lat="47.491125" lon="7.799903">
        <ele>552.533991</ele>
        <time>2021-11-07T15:14:00.561Z</time>
      </trkpt>
      <trkpt lat="47.491207" lon="7.800233">
        <ele>551.329269</ele>
        <time>2021-11-07T15:14:02.809Z</time>
      </trkpt>
      <trkpt lat="47.491266" lon="7.800470">
        <ele>550.463870</ele>
        <time>2021-11-07T15:14:04.583Z</time>
      </trkpt>
      <trkpt lat="47.491393" lon="7.801006">
        <ele>548.517722</ele>
        <time>2021-11-07T15:14:08.597Z</time>
      </trkpt>
      <trkpt lat="47.491405" lon="7.801118">
        <ele>548.309714</ele>
        <time>2021-11-07T15:14:09.365Z</time>
      </trkpt>
      <trkpt lat="47.491420" lon="7.801300">
        <ele>548.769454</ele>
        <time>2021-11-07T15:14:10.792Z</time>
      </trkpt>
      <trkpt lat="47.491399" lon="7.802037">
        <ele>550.619094</ele>
        <time>2021-11-07T15:14:18.774Z</time>
      </trkpt>
      <trkpt lat="47.491604" lon="7.802704">
        <ele>552.456451</ele>
        <time>2021-11-07T15:14:30.238Z</time>
      </trkpt>
      <trkpt lat="47.491641" lon="7.802949">
        <ele>553.085932</ele>
        <time>2021-11-07T15:14:35.542Z</time>
      </trkpt>
      <trkpt lat="47.491627" lon="7.803075">
        <ele>553.406114</ele>
        <time>2021-11-07T15:14:41.020Z</time>
      </trkpt>
      <trkpt lat="47.491556" lon="7.803362">
        <ele>554.172467</ele>
        <time>2021-11-07T15:14:50.243Z</time>
      </trkpt>
      <trkpt lat="47.491486" lon="7.803573">
        <ele>554.761869</ele>
        <time>2021-11-07T15:15:01.416Z</time>
      </trkpt>
      <trkpt lat="47.491467" lon="7.803711">
        <ele>555.550403</ele>
        <time>2021-11-07T15:15:08.399Z</time>
      </trkpt>
      <trkpt lat="47.491463" lon="7.803928">
        <ele>557.239644</ele>
        <time>2021-11-07T15:15:17.862Z</time>
      </trkpt>
      <trkpt lat="47.491423" lon="7.804002">
        <ele>557.977069</ele>
        <time>2021-11-07T15:15:24.686Z</time>
      </trkpt>
      <trkpt lat="47.491177" lon="7.804268">
        <ele>561.485721</ele>
        <time>2021-11-07T15:15:41.992Z</time>
      </trkpt>
      <trkpt lat="47.490972" lon="7.804817">
        <ele>566.366795</ele>
        <time>2021-11-07T15:16:13.011Z</time>
      </trkpt>
      <trkpt lat="47.490914" lon="7.804913">
        <ele>567.368909</ele>
        <time>2021-11-07T15:16:19.453Z</time>
      </trkpt>
      <trkpt lat="47.490692" lon="7.805224">
        <ele>570.889330</ele>
        <time>2021-11-07T15:16:38.874Z</time>
      </trkpt>
      <trkpt lat="47.490528" lon="7.805558">
        <ele>574.102194</ele>
        <time>2021-11-07T15:16:50.568Z</time>
      </trkpt>
      <trkpt lat="47.490509" lon="7.805657">
        <ele>574.903060</ele>
        <time>2021-11-07T15:16:58.001Z</time>
      </trkpt>
      <trkpt lat="47.490507" lon="7.805711">
        <ele>575.323907</ele>
        <time>2021-11-07T15:16:59.991Z</time>
      </trkpt>
      <trkpt lat="47.490538" lon="7.805979">
        <ele>576.609962</ele>
        <time>2021-11-07T15:17:07.005Z</time>
      </trkpt>
      <trkpt lat="47.490574" lon="7.806137">
        <ele>577.315215</ele>
        <time>2021-11-07T15:17:12.963Z</time>
      </trkpt>
      <trkpt lat="47.490633" lon="7.806304">
        <ele>578.112286</ele>
        <time>2021-11-07T15:17:20.510Z</time>
      </trkpt>
      <trkpt lat="47.490886" lon="7.806854">
        <ele>580.926471</ele>
        <time>2021-11-07T15:17:42.757Z</time>
      </trkpt>
      <trkpt lat="47.490987" lon="7.807452">
        <ele>583.533594</ele>
        <time>2021-11-07T15:17:58.349Z</time>
      </trkpt>
      <trkpt lat="47.491021" lon="7.807539">
        <ele>583.958683</ele>
        <time>2021-11-07T15:18:00.628Z</time>
      </trkpt>
      <trkpt lat="47.491259" lon="7.808151">
        <ele>586.869411</ele>
        <time>2021-11-07T15:18:11.250Z</time>
      </trkpt>
      <trkpt lat="47.491350" lon="7.808391">
        <ele>586.668757</ele>
        <time>2021-11-07T15:18:15.887Z</time>
      </trkpt>
      <trkpt lat="47.491452" lon="7.808947">
        <ele>586.248695</ele>
        <time>2021-11-07T15:18:23.176Z</time>
      </trkpt>
      <trkpt lat="47.491490" lon="7.809341">
        <ele>585.958514</ele>
        <time>2021-11-07T15:18:26.831Z</time>
      </trkpt>
      <trkpt lat="47.491540" lon="7.809874">
        <ele>585.566171</ele>
        <time>2021-11-07T15:18:31.454Z</time>
      </trkpt>
      <trkpt lat="47.491544" lon="7.810309">
        <ele>585.248979</ele>
        <time>2021-11-07T15:18:34.317Z</time>
      </trkpt>
      <trkpt lat="47.491483" lon="7.810733">
        <ele>584.890821</ele>
        <time>2021-11-07T15:18:37.357Z</time>
      </trkpt>
      <trkpt lat="47.491462" lon="7.810822">
        <ele>584.399466</ele>
        <time>2021-11-07T15:18:37.901Z</time>
      </trkpt>
      <trkpt lat="47.491417" lon="7.811033">
        <ele>583.246212</ele>
        <time>2021-11-07T15:18:39.413Z</time>
      </trkpt>
      <trkpt lat="47.491536" lon="7.811112">
        <ele>582.240149</ele>
        <time>2021-11-07T15:18:40.624Z</time>
      </trkpt>
      <trkpt lat="47.491701" lon="7.811206">
        <ele>580.876333</ele>
        <time>2021-11-07T15:18:42.185Z</time>
      </trkpt>
      <trkpt lat="47.492165" lon="7.811273">
        <ele>577.280147</ele>
        <time>2021-11-07T15:18:46.351Z</time>
      </trkpt>
      <trkpt lat="47.492224" lon="7.811327">
        <ele>576.745036</ele>
        <time>2021-11-07T15:18:46.974Z</time>
      </trkpt>
      <trkpt lat="47.492257" lon="7.811384">
        <ele>576.353806</ele>
        <time>2021-11-07T15:18:47.392Z</time>
      </trkpt>
      <trkpt lat="47.492273" lon="7.811452">
        <ele>575.978507</ele>
        <time>2021-11-07T15:18:47.802Z</time>
      </trkpt>
      <trkpt lat="47.492264" lon="7.811614">
        <ele>575.131295</ele>
        <time>2021-11-07T15:18:48.830Z</time>
      </trkpt>
      <trkpt lat="47.492176" lon="7.811763">
        <ele>574.099838</ele>
        <time>2021-11-07T15:18:50.020Z</time>
      </trkpt>
      <trkpt lat="47.492008" lon="7.811905">
        <ele>572.607466</ele>
        <time>2021-11-07T15:18:51.655Z</time>
      </trkpt>
      <trkpt lat="47.491595" lon="7.812210">
        <ele>568.250144</ele>
        <time>2021-11-07T15:18:55.652Z</time>
      </trkpt>
      <trkpt lat="47.491212" lon="7.812513">
        <ele>563.577431</ele>
        <time>2021-11-07T15:18:59.354Z</time>
      </trkpt>
      <trkpt lat="47.491001" lon="7.812847">
        <ele>560.253210</ele>
        <time>2021-11-07T15:19:01.961Z</time>
      </trkpt>
      <trkpt lat="47.490928" lon="7.813010">
        <ele>558.831499</ele>
        <time>2021-11-07T15:19:03.061Z</time>
      </trkpt>
      <trkpt lat="47.490609" lon="7.813824">
        <ele>551.990212</ele>
        <time>2021-11-07T15:19:08.614Z</time>
      </trkpt>
      <trkpt lat="47.490583" lon="7.813886">
        <ele>551.470940</ele>
        <time>2021-11-07T15:19:09.011Z</time>
      </trkpt>
      <trkpt lat="47.490141" lon="7.814910">
        <ele>543.028787</ele>
        <time>2021-11-07T15:19:16.034Z</time>
      </trkpt>
      <trkpt lat="47.489951" lon="7.815143">
        <ele>540.491635</ele>
        <time>2021-11-07T15:19:18.131Z</time>
      </trkpt>
      <trkpt lat="47.489256" lon="7.815700">
        <ele>532.533493</ele>
        <time>2021-11-07T15:19:24.961Z</time>
      </trkpt>
      <trkpt lat="47.489000" lon="7.816098">
        <ele>529.468821</ele>
        <time>2021-11-07T15:19:28.224Z</time>
      </trkpt>
      <trkpt lat="47.488831" lon="7.816489">
        <ele>526.880098</ele>
        <time>2021-11-07T15:19:30.933Z</time>
      </trkpt>
      <trkpt lat="47.488720" lon="7.816914">
        <ele>524.338802</ele>
        <time>2021-11-07T15:19:33.612Z</time>
      </trkpt>
      <trkpt lat="47.488531" lon="7.818236">
        <ele>517.489426</ele>
        <time>2021-11-07T15:19:41.782Z</time>
      </trkpt>
      <trkpt lat="47.488476" lon="7.818598">
        <ele>516.325084</ele>
        <time>2021-11-07T15:19:44.102Z</time>
      </trkpt>
      <trkpt lat="47.488471" lon="7.818631">
        <ele>516.218956</ele>
        <time>2021-11-07T15:19:44.304Z</time>
      </trkpt>
      <trkpt lat="47.488351" lon="7.819266">
        <ele>514.149821</ele>
        <time>2021-11-07T15:19:48.613Z</time>
      </trkpt>
      <trkpt lat="47.488069" lon="7.819771">
        <ele>512.094000</ele>
        <time>2021-11-07T15:19:52.956Z</time>
      </trkpt>
      <trkpt lat="47.488038" lon="7.819855">
        <ele>511.793650</ele>
        <time>2021-11-07T15:19:53.596Z</time>
      </trkpt>
      <trkpt lat="47.488034" lon="7.819897">
        <ele>511.660547</ele>
        <time>2021-11-07T15:19:54.076Z</time>
      </trkpt>
      <trkpt lat="47.488272" lon="7.820957">
        <ele>507.255871</ele>
        <time>2021-11-07T15:20:01.843Z</time>
      </trkpt>
      <trkpt lat="47.488407" lon="7.821368">
        <ele>505.130317</ele>
        <time>2021-11-07T15:20:04.661Z</time>
      </trkpt>
      <trkpt lat="47.488631" lon="7.821707">
        <ele>502.924981</ele>
        <time>2021-11-07T15:20:07.539Z</time>
      </trkpt>
      <trkpt lat="47.489169" lon="7.822169">
        <ele>498.643491</ele>
        <time>2021-11-07T15:20:13.017Z</time>
      </trkpt>
      <trkpt lat="47.489263" lon="7.822249">
        <ele>497.897103</ele>
        <time>2021-11-07T15:20:13.936Z</time>
      </trkpt>
      <trkpt lat="47.489383" lon="7.822351">
        <ele>496.382968</ele>
        <time>2021-11-07T15:20:15.155Z</time>
      </trkpt>
      <trkpt lat="47.489514" lon="7.822403">
        <ele>494.695745</ele>
        <time>2021-11-07T15:20:16.290Z</time>
      </trkpt>
      <trkpt lat="47.489808" lon="7.822489">
        <ele>490.967672</ele>
        <time>2021-11-07T15:20:18.837Z</time>
      </trkpt>
      <trkpt lat="47.490467" lon="7.822385">
        <ele>482.723337</ele>
        <time>2021-11-07T15:20:24.413Z</time>
      </trkpt>
      <trkpt lat="47.490703" lon="7.822453">
        <ele>479.732409</ele>
        <time>2021-11-07T15:20:26.410Z</time>
      </trkpt>
      <trkpt lat="47.491130" lon="7.822694">
        <ele>474.148669</ele>
        <time>2021-11-07T15:20:30.211Z</time>
      </trkpt>
      <trkpt lat="47.492112" lon="7.823401">
        <ele>461.693201</ele>
        <time>2021-11-07T15:20:39.484Z</time>
      </trkpt>
      <trkpt lat="47.492353" lon="7.823575">
        <ele>458.634764</ele>
        <time>2021-11-07T15:20:41.760Z</time>
      </trkpt>
      <trkpt lat="47.492649" lon="7.823801">
        <ele>454.835865</ele>
        <time>2021-11-07T15:20:44.629Z</time>
      </trkpt>
      <trkpt lat="47.492910" lon="7.823929">
        <ele>452.787842</ele>
        <time>2021-11-07T15:20:47.022Z</time>
      </trkpt>
      <trkpt lat="47.493041" lon="7.823859">
        <ele>451.765849</ele>
        <time>2021-11-07T15:20:48.255Z</time>
      </trkpt>
      <trkpt lat="47.493084" lon="7.823708">
        <ele>450.953412</ele>
        <time>2021-11-07T15:20:49.276Z</time>
      </trkpt>
      <trkpt lat="47.493025" lon="7.823293">
        <ele>448.850775</ele>
        <time>2021-11-07T15:20:51.788Z</time>
      </trkpt>
      <trkpt lat="47.493047" lon="7.823163">
        <ele>448.186321</ele>
        <time>2021-11-07T15:20:52.618Z</time>
      </trkpt>
      <trkpt lat="47.493066" lon="7.823134">
        <ele>447.986043</ele>
        <time>2021-11-07T15:20:52.865Z</time>
      </trkpt>
      <trkpt lat="47.493081" lon="7.823112">
        <ele>447.831083</ele>
        <time>2021-11-07T15:20:53.036Z</time>
      </trkpt>
      <trkpt lat="47.493228" lon="7.823059">
        <ele>446.720873</ele>
        <time>2021-11-07T15:20:54.376Z</time>
      </trkpt>
      <trkpt lat="47.493370" lon="7.823135">
        <ele>445.612859</ele>
        <time>2021-11-07T15:20:55.878Z</time>
      </trkpt>
      <trkpt lat="47.493409" lon="7.823156">
        <ele>445.308331</ele>
        <time>2021-11-07T15:20:56.250Z</time>
      </trkpt>
      <trkpt lat="47.493592" lon="7.823360">
        <ele>443.627208</ele>
        <time>2021-11-07T15:20:58.355Z</time>
      </trkpt>
      <trkpt lat="47.493696" lon="7.823573">
        <ele>442.324282</ele>
        <time>2021-11-07T15:20:59.984Z</time>
      </trkpt>
      <trkpt lat="47.493699" lon="7.823782">
        <ele>441.471355</ele>
        <time>2021-11-07T15:21:01.368Z</time>
      </trkpt>
      <trkpt lat="47.493509" lon="7.824560">
        <ele>440.215339</ele>
        <time>2021-11-07T15:21:06.665Z</time>
      </trkpt>
      <trkpt lat="47.493537" lon="7.824674">
        <ele>440.031174</ele>
        <time>2021-11-07T15:21:07.446Z</time>
      </trkpt>
      <trkpt lat="47.493647" lon="7.824596">
        <ele>439.757090</ele>
        <time>2021-11-07T15:21:08.713Z</time>
      </trkpt>
      <trkpt lat="47.493875" lon="7.824391">
        <ele>439.157624</ele>
        <time>2021-11-07T15:21:11.873Z</time>
      </trkpt>
      <trkpt lat="47.493969" lon="7.824265">
        <ele>438.872645</ele>
        <time>2021-11-07T15:21:13.303Z</time>
      </trkpt>
      <trkpt lat="47.494072" lon="7.824126">
        <ele>438.559426</ele>
        <time>2021-11-07T15:21:15.718Z</time>
      </trkpt>
      <trkpt lat="47.494316" lon="7.823809">
        <ele>437.829866</ele>
        <time>2021-11-07T15:21:20.582Z</time>
      </trkpt>
      <trkpt lat="47.494522" lon="7.823673">
        <ele>437.549907</ele>
        <time>2021-11-07T15:21:23.438Z</time>
      </trkpt>
      <trkpt lat="47.494652" lon="7.823597">
        <ele>437.615555</ele>
        <time>2021-11-07T15:21:26.872Z</time>
      </trkpt>
      <trkpt lat="47.494910" lon="7.823403">
        <ele>437.751471</ele>
        <time>2021-11-07T15:21:31.347Z</time>
      </trkpt>
      <trkpt lat="47.494984" lon="7.823371">
        <ele>437.787680</ele>
        <time>2021-11-07T15:21:33.427Z</time>
      </trkpt>
      <trkpt lat="47.495379" lon="7.823313">
        <ele>437.974110</ele>
        <time>2021-11-07T15:21:40.465Z</time>
      </trkpt>
      <trkpt lat="47.495577" lon="7.823253">
        <ele>438.069034</ele>
        <time>2021-11-07T15:21:43.859Z</time>
      </trkpt>
      <trkpt lat="47.495873" lon="7.823177">
        <ele>438.210132</ele>
        <time>2021-11-07T15:21:48.957Z</time>
      </trkpt>
      <trkpt lat="47.496106" lon="7.823142">
        <ele>438.320127</ele>
        <time>2021-11-07T15:21:53.260Z</time>
      </trkpt>
      <trkpt lat="47.496254" lon="7.823140">
        <ele>438.192443</ele>
        <time>2021-11-07T15:21:55.871Z</time>
      </trkpt>
      <trkpt lat="47.496320" lon="7.823139">
        <ele>438.044663</ele>
        <time>2021-11-07T15:21:56.784Z</time>
      </trkpt>
      <trkpt lat="47.496375" lon="7.823140">
        <ele>437.921511</ele>
        <time>2021-11-07T15:21:57.683Z</time>
      </trkpt>
      <trkpt lat="47.496704" lon="7.823163">
        <ele>437.184070</ele>
        <time>2021-11-07T15:22:01.956Z</time>
      </trkpt>
      <trkpt lat="47.496927" lon="7.823151">
        <ele>436.684451</ele>
        <time>2021-11-07T15:22:04.443Z</time>
      </trkpt>
      <trkpt lat="47.497246" lon="7.823247">
        <ele>435.955608</ele>
        <time>2021-11-07T15:22:07.820Z</time>
      </trkpt>
      <trkpt lat="47.498162" lon="7.823883">
        <ele>432.607385</ele>
        <time>2021-11-07T15:22:17.843Z</time>
      </trkpt>
      <trkpt lat="47.498343" lon="7.824061">
        <ele>431.295108</ele>
        <time>2021-11-07T15:22:19.901Z</time>
      </trkpt>
      <trkpt lat="47.498586" lon="7.824227">
        <ele>429.678943</ele>
        <time>2021-11-07T15:22:22.459Z</time>
      </trkpt>
      <trkpt lat="47.499488" lon="7.824926">
        <ele>423.530609</ele>
        <time>2021-11-07T15:22:31.587Z</time>
      </trkpt>
      <trkpt lat="47.499602" lon="7.824975">
        <ele>422.574845</ele>
        <time>2021-11-07T15:22:32.628Z</time>
      </trkpt>
      <trkpt lat="47.499714" lon="7.825011">
        <ele>421.629538</ele>
        <time>2021-11-07T15:22:33.612Z</time>
      </trkpt>
      <trkpt lat="47.500062" lon="7.825087">
        <ele>418.728156</ele>
        <time>2021-11-07T15:22:36.706Z</time>
      </trkpt>
      <trkpt lat="47.500269" lon="7.825147">
        <ele>416.988389</ele>
        <time>2021-11-07T15:22:38.598Z</time>
      </trkpt>
      <trkpt lat="47.500385" lon="7.825189">
        <ele>416.003412</ele>
        <time>2021-11-07T15:22:39.620Z</time>
      </trkpt>
      <trkpt lat="47.501557" lon="7.825705">
        <ele>406.816228</ele>
        <time>2021-11-07T15:22:50.329Z</time>
      </trkpt>
      <trkpt lat="47.502825" lon="7.825809">
        <ele>399.808433</ele>
        <time>2021-11-07T15:23:02.239Z</time>
      </trkpt>
      <trkpt lat="47.503143" lon="7.825808">
        <ele>398.534718</ele>
        <time>2021-11-07T15:23:05.467Z</time>
      </trkpt>
      <trkpt lat="47.503195" lon="7.825807">
        <ele>398.459275</ele>
        <time>2021-11-07T15:23:06.036Z</time>
      </trkpt>
      <trkpt lat="47.503225" lon="7.825809">
        <ele>398.415710</ele>
        <time>2021-11-07T15:23:06.369Z</time>
      </trkpt>
      <trkpt lat="47.503509" lon="7.825771">
        <ele>398.002033</ele>
        <time>2021-11-07T15:23:09.388Z</time>
      </trkpt>
      <trkpt lat="47.503860" lon="7.825735">
        <ele>397.491618</ele>
        <time>2021-11-07T15:23:13.321Z</time>
      </trkpt>
      <trkpt lat="47.504813" lon="7.825703">
        <ele>396.108748</ele>
        <time>2021-11-07T15:23:25.930Z</time>
      </trkpt>
      <trkpt lat="47.506147" lon="7.825028">
        <ele>396.276245</ele>
        <time>2021-11-07T15:23:49.024Z</time>
      </trkpt>
      <trkpt lat="47.507017" lon="7.824678">
        <ele>395.261375</ele>
        <time>2021-11-07T15:24:02.600Z</time>
      </trkpt>
      <trkpt lat="47.507990" lon="7.824326">
        <ele>393.146078</ele>
        <time>2021-11-07T15:24:13.384Z</time>
      </trkpt>
      <trkpt lat="47.508288" lon="7.824180">
        <ele>392.400273</ele>
        <time>2021-11-07T15:24:16.466Z</time>
      </trkpt>
      <trkpt lat="47.509075" lon="7.823456">
        <ele>386.866897</ele>
        <time>2021-11-07T15:24:24.993Z</time>
      </trkpt>
      <trkpt lat="47.509744" lon="7.823275">
        <ele>382.805542</ele>
        <time>2021-11-07T15:24:31.068Z</time>
      </trkpt>
      <trkpt lat="47.510203" lon="7.823212">
        <ele>380.307208</ele>
        <time>2021-11-07T15:24:35.288Z</time>
      </trkpt>
      <trkpt lat="47.510706" lon="7.823221">
        <ele>377.743923</ele>
        <time>2021-11-07T15:24:39.929Z</time>
      </trkpt>
      <trkpt lat="47.511863" lon="7.823271">
        <ele>372.366156</ele>
        <time>2021-11-07T15:24:50.972Z</time>
      </trkpt>
      <trkpt lat="47.512067" lon="7.823229">
        <ele>372.020190</ele>
        <time>2021-11-07T15:24:53.187Z</time>
      </trkpt>
      <trkpt lat="47.512263" lon="7.823167">
        <ele>371.683529</ele>
        <time>2021-11-07T15:24:55.321Z</time>
      </trkpt>
      <trkpt lat="47.512648" lon="7.822935">
        <ele>370.985311</ele>
        <time>2021-11-07T15:25:00.148Z</time>
      </trkpt>
      <trkpt lat="47.513483" lon="7.822231">
        <ele>369.358761</ele>
        <time>2021-11-07T15:25:13.157Z</time>
      </trkpt>
      <trkpt lat="47.514302" lon="7.821660">
        <ele>367.755437</ele>
        <time>2021-11-07T15:25:24.643Z</time>
      </trkpt>
      <trkpt lat="47.514708" lon="7.821376">
        <ele>366.960149</ele>
        <time>2021-11-07T15:25:29.290Z</time>
      </trkpt>
      <trkpt lat="47.514821" lon="7.821292">
        <ele>366.736204</ele>
        <time>2021-11-07T15:25:30.626Z</time>
      </trkpt>
      <trkpt lat="47.515036" lon="7.821090">
        <ele>366.071360</ele>
        <time>2021-11-07T15:25:33.137Z</time>
      </trkpt>
      <trkpt lat="47.515202" lon="7.820909">
        <ele>365.105355</ele>
        <time>2021-11-07T15:25:35.210Z</time>
      </trkpt>
      <trkpt lat="47.515268" lon="7.820836">
        <ele>364.719328</ele>
        <time>2021-11-07T15:25:35.961Z</time>
      </trkpt>
      <trkpt lat="47.515469" lon="7.820644">
        <ele>363.598484</ele>
        <time>2021-11-07T15:25:38.335Z</time>
      </trkpt>
      <trkpt lat="47.515587" lon="7.820532">
        <ele>362.941703</ele>
        <time>2021-11-07T15:25:39.617Z</time>
      </trkpt>
      <trkpt lat="47.516786" lon="7.819655">
        <ele>357.122106</ele>
        <time>2021-11-07T15:25:52.072Z</time>
      </trkpt>
      <trkpt lat="47.517657" lon="7.818442">
        <ele>353.427636</ele>
        <time>2021-11-07T15:26:04.491Z</time>
      </trkpt>
      <trkpt lat="47.518035" lon="7.818005">
        <ele>352.113270</ele>
        <time>2021-11-07T15:26:09.881Z</time>
      </trkpt>
      <trkpt lat="47.518220" lon="7.817823">
        <ele>351.664384</ele>
        <time>2021-11-07T15:26:12.415Z</time>
      </trkpt>
      <trkpt lat="47.518481" lon="7.817598">
        <ele>351.054016</ele>
        <time>2021-11-07T15:26:15.865Z</time>
      </trkpt>
      <trkpt lat="47.518941" lon="7.817228">
        <ele>349.996045</ele>
        <time>2021-11-07T15:26:21.661Z</time>
      </trkpt>
      <trkpt lat="47.519453" lon="7.816861">
        <ele>348.846426</ele>
        <time>2021-11-07T15:26:27.852Z</time>
      </trkpt>
      <trkpt lat="47.519807" lon="7.816661">
        <ele>347.789335</ele>
        <time>2021-11-07T15:26:31.788Z</time>
      </trkpt>
      <trkpt lat="47.519959" lon="7.816575">
        <ele>347.326298</ele>
        <time>2021-11-07T15:26:33.521Z</time>
      </trkpt>
      <trkpt lat="47.520002" lon="7.816556">
        <ele>347.198604</ele>
        <time>2021-11-07T15:26:33.966Z</time>
      </trkpt>
      <trkpt lat="47.520578" lon="7.816306">
        <ele>345.490553</ele>
        <time>2021-11-07T15:26:40.091Z</time>
      </trkpt>
      <trkpt lat="47.521028" lon="7.816163">
        <ele>344.180859</ele>
        <time>2021-11-07T15:26:44.817Z</time>
      </trkpt>
      <trkpt lat="47.521087" lon="7.816144">
        <ele>344.009041</ele>
        <time>2021-11-07T15:26:45.378Z</time>
      </trkpt>
      <trkpt lat="47.521199" lon="7.816108">
        <ele>343.682907</ele>
        <time>2021-11-07T15:26:46.581Z</time>
      </trkpt>
      <trkpt lat="47.521383" lon="7.816075">
        <ele>343.193328</ele>
        <time>2021-11-07T15:26:48.546Z</time>
      </trkpt>
      <trkpt lat="47.521699" lon="7.816019">
        <ele>342.353482</ele>
        <time>2021-11-07T15:26:51.834Z</time>
      </trkpt>
      <trkpt lat="47.521870" lon="7.815989">
        <ele>341.899072</ele>
        <time>2021-11-07T15:26:53.589Z</time>
      </trkpt>
      <trkpt lat="47.522090" lon="7.815952">
        <ele>341.314779</ele>
        <time>2021-11-07T15:26:56.078Z</time>
      </trkpt>
      <trkpt lat="47.523608" lon="7.815695">
        <ele>337.316189</ele>
        <time>2021-11-07T15:27:12.143Z</time>
      </trkpt>
      <trkpt lat="47.523730" lon="7.815653">
        <ele>336.992353</ele>
        <time>2021-11-07T15:27:13.454Z</time>
      </trkpt>
      <trkpt lat="47.523757" lon="7.815629">
        <ele>336.910936</ele>
        <time>2021-11-07T15:27:13.738Z</time>
      </trkpt>
      <trkpt lat="47.523836" lon="7.814923">
        <ele>335.661516</ele>
        <time>2021-11-07T15:27:18.972Z</time>
      </trkpt>
      <trkpt lat="47.523994" lon="7.814691">
        <ele>335.086244</ele>
        <time>2021-11-07T15:27:21.259Z</time>
      </trkpt>
      <trkpt lat="47.524032" lon="7.814643">
        <ele>334.957110</ele>
        <time>2021-11-07T15:27:21.770Z</time>
      </trkpt>
      <trkpt lat="47.524286" lon="7.814362">
        <ele>334.170977</ele>
        <time>2021-11-07T15:27:25.103Z</time>
      </trkpt>
      <trkpt lat="47.524601" lon="7.814100">
        <ele>333.457415</ele>
        <time>2021-11-07T15:27:28.878Z</time>
      </trkpt>
      <trkpt lat="47.524645" lon="7.814069">
        <ele>333.361178</ele>
        <time>2021-11-07T15:27:29.405Z</time>
      </trkpt>
      <trkpt lat="47.524963" lon="7.813836">
        <ele>332.660434</ele>
        <time>2021-11-07T15:27:33.341Z</time>
      </trkpt>
      <trkpt lat="47.524982" lon="7.813822">
        <ele>332.618519</ele>
        <time>2021-11-07T15:27:33.584Z</time>
      </trkpt>
      <trkpt lat="47.525103" lon="7.813754">
        <ele>332.362906</ele>
        <time>2021-11-07T15:27:35.087Z</time>
      </trkpt>
      <trkpt lat="47.525103" lon="7.813754">
        <ele>332.362906</ele>
        <time>2021-11-07T15:27:35.091Z</time>
      </trkpt>
      <trkpt lat="47.525265" lon="7.813766">
        <ele>332.042545</ele>
        <time>2021-11-07T15:27:36.797Z</time>
      </trkpt>
      <trkpt lat="47.525640" lon="7.813941">
        <ele>331.265990</ele>
        <time>2021-11-07T15:27:41.320Z</time>
      </trkpt>
      <trkpt lat="47.525827" lon="7.814026">
        <ele>330.879646</ele>
        <time>2021-11-07T15:27:43.637Z</time>
      </trkpt>
      <trkpt lat="47.525829" lon="7.814027">
        <ele>330.875477</ele>
        <time>2021-11-07T15:27:43.652Z</time>
      </trkpt>
      <trkpt lat="47.525874" lon="7.814072">
        <ele>330.768233</ele>
        <time>2021-11-07T15:27:44.251Z</time>
      </trkpt>
      <trkpt lat="47.526135" lon="7.814494">
        <ele>330.197198</ele>
        <time>2021-11-07T15:27:48.672Z</time>
      </trkpt>
      <trkpt lat="47.526394" lon="7.814809">
        <ele>329.711398</ele>
        <time>2021-11-07T15:27:52.505Z</time>
      </trkpt>
      <trkpt lat="47.526478" lon="7.814853">
        <ele>329.582247</ele>
        <time>2021-11-07T15:27:53.516Z</time>
      </trkpt>
      <trkpt lat="47.526515" lon="7.814855">
        <ele>329.528580</ele>
        <time>2021-11-07T15:27:53.955Z</time>
      </trkpt>
      <trkpt lat="47.526515" lon="7.814855">
        <ele>329.528580</ele>
        <time>2021-11-07T15:27:53.960Z</time>
      </trkpt>
      <trkpt lat="47.526996" lon="7.813844">
        <ele>328.318085</ele>
        <time>2021-11-07T15:28:09.438Z</time>
      </trkpt>
      <trkpt lat="47.527477" lon="7.812833">
        <ele>327.233658</ele>
        <time>2021-11-07T15:28:24.916Z</time>
      </trkpt>
      <trkpt lat="47.527958" lon="7.811822">
        <ele>326.173892</ele>
        <time>2021-11-07T15:28:40.393Z</time>
      </trkpt>
      <trkpt lat="47.528439" lon="7.810811">
        <ele>325.278430</ele>
        <time>2021-11-07T15:28:55.870Z</time>
      </trkpt>
      <trkpt lat="47.528920" lon="7.809800">
        <ele>324.459367</ele>
        <time>2021-11-07T15:29:11.346Z</time>
      </trkpt>
      <trkpt lat="47.529100" lon="7.809485">
        <ele>324.186076</ele>
        <time>2021-11-07T15:29:14.817Z</time>
      </trkpt>
      <trkpt lat="47.529208" lon="7.809338">
        <ele>324.080816</ele>
        <time>2021-11-07T15:29:16.620Z</time>
      </trkpt>
      <trkpt lat="47.529274" lon="7.809267">
        <ele>324.099834</ele>
        <time>2021-11-07T15:29:17.790Z</time>
      </trkpt>
      <trkpt lat="47.529336" lon="7.809212">
        <ele>324.116683</ele>
        <time>2021-11-07T15:29:19.116Z</time>
      </trkpt>
      <trkpt lat="47.529513" lon="7.809105">
        <ele>324.161253</ele>
        <time>2021-11-07T15:29:21.573Z</time>
      </trkpt>
      <trkpt lat="47.529594" lon="7.809061">
        <ele>324.181367</ele>
        <time>2021-11-07T15:29:22.826Z</time>
      </trkpt>
      <trkpt lat="47.529966" lon="7.808858">
        <ele>324.273793</ele>
        <time>2021-11-07T15:29:29.209Z</time>
      </trkpt>
      <trkpt lat="47.530041" lon="7.808819">
        <ele>324.292324</ele>
        <time>2021-11-07T15:29:30.744Z</time>
      </trkpt>
      <trkpt lat="47.530543" lon="7.808552">
        <ele>324.416676</ele>
        <time>2021-11-07T15:29:39.463Z</time>
      </trkpt>
      <trkpt lat="47.530585" lon="7.808529">
        <ele>324.427115</ele>
        <time>2021-11-07T15:29:40.213Z</time>
      </trkpt>
      <trkpt lat="47.530684" lon="7.808469">
        <ele>324.452053</ele>
        <time>2021-11-07T15:29:42.468Z</time>
      </trkpt>
      <trkpt lat="47.531066" lon="7.808197">
        <ele>324.527399</ele>
        <time>2021-11-07T15:29:49.983Z</time>
      </trkpt>
      <trkpt lat="47.531380" lon="7.807943">
        <ele>324.577141</ele>
        <time>2021-11-07T15:29:56.287Z</time>
      </trkpt>
      <trkpt lat="47.531735" lon="7.807655">
        <ele>324.633414</ele>
        <time>2021-11-07T15:30:02.648Z</time>
      </trkpt>
      <trkpt lat="47.532412" lon="7.807037">
        <ele>324.734985</ele>
        <time>2021-11-07T15:30:14.050Z</time>
      </trkpt>
      <trkpt lat="47.532581" lon="7.806843">
        <ele>324.539856</ele>
        <time>2021-11-07T15:30:16.897Z</time>
      </trkpt>
      <trkpt lat="47.532546" lon="7.806703">
        <ele>324.447870</ele>
        <time>2021-11-07T15:30:18.555Z</time>
      </trkpt>
      <trkpt lat="47.533091" lon="7.806305">
        <ele>323.893335</ele>
        <time>2021-11-07T15:30:28.995Z</time>
      </trkpt>
      <trkpt lat="47.533583" lon="7.806082">
        <ele>323.423784</ele>
        <time>2021-11-07T15:30:37.546Z</time>
      </trkpt>
      <trkpt lat="47.533723" lon="7.806018">
        <ele>323.290074</ele>
        <time>2021-11-07T15:30:40.083Z</time>
      </trkpt>
      <trkpt lat="47.534648" lon="7.805785">
        <ele>322.951099</ele>
        <time>2021-11-07T15:30:57.366Z</time>
      </trkpt>
      <trkpt lat="47.534894" lon="7.805725">
        <ele>322.899888</ele>
        <time>2021-11-07T15:31:02.077Z</time>
      </trkpt>
      <trkpt lat="47.535092" lon="7.805671">
        <ele>322.858533</ele>
        <time>2021-11-07T15:31:06.402Z</time>
      </trkpt>
      <trkpt lat="47.535828" lon="7.805308">
        <ele>322.757607</ele>
        <time>2021-11-07T15:31:22.618Z</time>
      </trkpt>
      <trkpt lat="47.536875" lon="7.804558">
        <ele>322.945422</ele>
        <time>2021-11-07T15:31:48.550Z</time>
      </trkpt>
      <trkpt lat="47.537755" lon="7.803639">
        <ele>322.524731</ele>
        <time>2021-11-07T15:32:08.688Z</time>
      </trkpt>
      <trkpt lat="47.538164" lon="7.803170">
        <ele>322.095962</ele>
        <time>2021-11-07T15:32:17.835Z</time>
      </trkpt>
      <trkpt lat="47.538256" lon="7.803059">
        <ele>321.997600</ele>
        <time>2021-11-07T15:32:19.673Z</time>
      </trkpt>
      <trkpt lat="47.540006" lon="7.800680">
        <ele>319.997502</ele>
        <time>2021-11-07T15:33:00.567Z</time>
      </trkpt>
      <trkpt lat="47.540192" lon="7.800458">
        <ele>320.211405</ele>
        <time>2021-11-07T15:33:05.113Z</time>
      </trkpt>
      <trkpt lat="47.540260" lon="7.800353">
        <ele>320.299367</ele>
        <time>2021-11-07T15:33:08.178Z</time>
      </trkpt>
      <trkpt lat="47.540644" lon="7.800163">
        <ele>320.661916</ele>
        <time>2021-11-07T15:33:17.974Z</time>
      </trkpt>
      <trkpt lat="47.540897" lon="7.800171">
        <ele>320.888530</ele>
        <time>2021-11-07T15:33:24.141Z</time>
      </trkpt>
      <trkpt lat="47.541705" lon="7.800028">
        <ele>321.566789</ele>
        <time>2021-11-07T15:33:45.913Z</time>
      </trkpt>
      <trkpt lat="47.542307" lon="7.799830">
        <ele>320.836809</ele>
        <time>2021-11-07T15:34:00.887Z</time>
      </trkpt>
      <trkpt lat="47.542998" lon="7.799859">
        <ele>320.018498</ele>
        <time>2021-11-07T15:34:13.116Z</time>
      </trkpt>
      <trkpt lat="47.544071" lon="7.799629">
        <ele>315.929470</ele>
        <time>2021-11-07T15:34:28.038Z</time>
      </trkpt>
      <trkpt lat="47.544184" lon="7.799620">
        <ele>315.281547</ele>
        <time>2021-11-07T15:34:29.427Z</time>
      </trkpt>
      <trkpt lat="47.544345" lon="7.799570">
        <ele>314.339693</ele>
        <time>2021-11-07T15:34:31.621Z</time>
      </trkpt>
      <trkpt lat="47.544568" lon="7.799371">
        <ele>312.849141</ele>
        <time>2021-11-07T15:34:34.978Z</time>
      </trkpt>
      <trkpt lat="47.544749" lon="7.799388">
        <ele>311.810733</ele>
        <time>2021-11-07T15:34:37.421Z</time>
      </trkpt>
      <trkpt lat="47.544827" lon="7.799356">
        <ele>311.347330</ele>
        <time>2021-11-07T15:34:38.403Z</time>
      </trkpt>
      <trkpt lat="47.545096" lon="7.799250">
        <ele>309.753600</ele>
        <time>2021-11-07T15:34:42.122Z</time>
      </trkpt>
      <trkpt lat="47.545182" lon="7.799205">
        <ele>309.231390</ele>
        <time>2021-11-07T15:34:43.219Z</time>
      </trkpt>
      <trkpt lat="47.545396" lon="7.798977">
        <ele>308.119717</ele>
        <time>2021-11-07T15:34:46.759Z</time>
      </trkpt>
      <trkpt lat="47.545449" lon="7.798705">
        <ele>307.326402</ele>
        <time>2021-11-07T15:34:49.160Z</time>
      </trkpt>
      <trkpt lat="47.545511" lon="7.798680">
        <ele>307.059656</ele>
        <time>2021-11-07T15:34:49.991Z</time>
      </trkpt>
      <trkpt lat="47.545581" lon="7.798713">
        <ele>306.754703</ele>
        <time>2021-11-07T15:34:51.030Z</time>
      </trkpt>
      <trkpt lat="47.545731" lon="7.798810">
        <ele>306.075264</ele>
        <time>2021-11-07T15:34:53.237Z</time>
      </trkpt>
      <trkpt lat="47.545807" lon="7.798846">
        <ele>305.744027</ele>
        <time>2021-11-07T15:34:54.345Z</time>
      </trkpt>
      <trkpt lat="47.546418" lon="7.798980">
        <ele>303.179913</ele>
        <time>2021-11-07T15:35:03.192Z</time>
      </trkpt>
      <trkpt lat="47.547540" lon="7.799538">
        <ele>301.040056</ele>
        <time>2021-11-07T15:35:22.916Z</time>
      </trkpt>
      <trkpt lat="47.547912" lon="7.799646">
        <ele>300.737088</ele>
        <time>2021-11-07T15:35:30.297Z</time>
      </trkpt>
      <trkpt lat="47.548459" lon="7.799691">
        <ele>300.299235</ele>
        <time>2021-11-07T15:35:41.235Z</time>
      </trkpt>
      <trkpt lat="47.548535" lon="7.799720">
        <ele>300.261411</ele>
        <time>2021-11-07T15:35:42.754Z</time>
      </trkpt>
      <trkpt lat="47.548514" lon="7.799795">
        <ele>300.257616</ele>
        <time>2021-11-07T15:35:43.818Z</time>
      </trkpt>
      <trkpt lat="47.548519" lon="7.799896">
        <ele>300.252884</ele>
        <time>2021-11-07T15:35:45.173Z</time>
      </trkpt>
      <trkpt lat="47.548545" lon="7.800404">
        <ele>300.229077</ele>
        <time>2021-11-07T15:35:51.963Z</time>
      </trkpt>
      <trkpt lat="47.548560" lon="7.800672">
        <ele>300.216510</ele>
        <time>2021-11-07T15:35:55.656Z</time>
      </trkpt>
      <trkpt lat="47.548569" lon="7.800838">
        <ele>300.208728</ele>
        <time>2021-11-07T15:35:57.900Z</time>
      </trkpt>
      <trkpt lat="47.548576" lon="7.800968">
        <ele>300.202634</ele>
        <time>2021-11-07T15:35:59.676Z</time>
      </trkpt>
      <trkpt lat="47.548596" lon="7.801213">
        <ele>300.191101</ele>
        <time>2021-11-07T15:36:03.055Z</time>
      </trkpt>
      <trkpt lat="47.548607" lon="7.801690">
        <ele>300.168798</ele>
        <time>2021-11-07T15:36:09.555Z</time>
      </trkpt>
      <trkpt lat="47.548626" lon="7.802129">
        <ele>300.148241</ele>
        <time>2021-11-07T15:36:15.473Z</time>
      </trkpt>
      <trkpt lat="47.548877" lon="7.802168">
        <ele>300.102619</ele>
        <time>2021-11-07T15:36:20.466Z</time>
      </trkpt>
      <trkpt lat="47.549410" lon="7.802226">
        <ele>299.942754</ele>
        <time>2021-11-07T15:36:30.880Z</time>
      </trkpt>
      <trkpt lat="47.549481" lon="7.802234">
        <ele>299.921455</ele>
        <time>2021-11-07T15:36:32.218Z</time>
      </trkpt>
      <trkpt lat="47.549879" lon="7.802247">
        <ele>299.802373</ele>
        <time>2021-11-07T15:36:39.684Z</time>
      </trkpt>
      <trkpt lat="47.550146" lon="7.802262">
        <ele>299.722448</ele>
        <time>2021-11-07T15:36:44.757Z</time>
      </trkpt>
      <trkpt lat="47.550134" lon="7.803051">
        <ele>299.583039</ele>
        <time>2021-11-07T15:36:55.007Z</time>
      </trkpt>
      <trkpt lat="47.550196" lon="7.803120">
        <ele>299.571972</ele>
        <time>2021-11-07T15:36:56.457Z</time>
      </trkpt>
      <trkpt lat="47.550981" lon="7.803132">
        <ele>299.459933</ele>
        <time>2021-11-07T15:37:11.111Z</time>
      </trkpt>
      <trkpt lat="47.551163" lon="7.803129">
        <ele>299.433957</ele>
        <time>2021-11-07T15:37:14.528Z</time>
      </trkpt>
      <trkpt lat="47.551507" lon="7.803153">
        <ele>299.384808</ele>
        <time>2021-11-07T15:37:21.246Z</time>
      </trkpt>
      <trkpt lat="47.551598" lon="7.803160">
        <ele>299.371803</ele>
        <time>2021-11-07T15:37:23.092Z</time>
      </trkpt>
      <trkpt lat="47.551666" lon="7.803144">
        <ele>299.361976</ele>
        <time>2021-11-07T15:37:27.837Z</time>
      </trkpt>
      <trkpt lat="47.551732" lon="7.803125">
        <ele>299.352381</ele>
        <time>2021-11-07T15:37:32.504Z</time>
      </trkpt>
      <trkpt lat="47.551744" lon="7.803277">
        <ele>299.382456</ele>
        <time>2021-11-07T15:37:34.214Z</time>
      </trkpt>
      <trkpt lat="47.551751" lon="7.803369">
        <ele>299.431603</ele>
        <time>2021-11-07T15:37:35.275Z</time>
      </trkpt>
      <trkpt lat="47.551692" lon="7.803510">
        <ele>299.519671</ele>
        <time>2021-11-07T15:37:37.892Z</time>
      </trkpt>
      <trkpt lat="47.551741" lon="7.804294">
        <ele>299.937636</ele>
        <time>2021-11-07T15:37:50.927Z</time>
      </trkpt>
      <trkpt lat="47.551744" lon="7.804473">
        <ele>300.032687</ele>
        <time>2021-11-07T15:37:53.408Z</time>
      </trkpt>
      <trkpt lat="47.551731" lon="7.804667">
        <ele>300.136178</ele>
        <time>2021-11-07T15:37:57.428Z</time>
      </trkpt>
      <trkpt lat="47.551709" lon="7.805000">
        <ele>300.313796</ele>
        <time>2021-11-07T15:38:01.875Z</time>
      </trkpt>
      <trkpt lat="47.551681" lon="7.805477">
        <ele>300.567966</ele>
        <time>2021-11-07T15:38:09.594Z</time>
      </trkpt>
      <trkpt lat="47.551678" lon="7.805683">
        <ele>300.677347</ele>
        <time>2021-11-07T15:38:13.419Z</time>
      </trkpt>
      <trkpt lat="47.551671" lon="7.806117">
        <ele>300.762907</ele>
        <time>2021-11-07T15:38:19.698Z</time>
      </trkpt>
      <trkpt lat="47.551651" lon="7.806246">
        <ele>300.764656</ele>
        <time>2021-11-07T15:38:22.622Z</time>
      </trkpt>
      <trkpt lat="47.551895" lon="7.806278">
        <ele>300.769450</ele>
        <time>2021-11-07T15:38:26.125Z</time>
      </trkpt>
      <trkpt lat="47.552015" lon="7.806307">
        <ele>300.771830</ele>
        <time>2021-11-07T15:38:29.020Z</time>
      </trkpt>
      <trkpt lat="47.552068" lon="7.806445">
        <ele>300.773927</ele>
        <time>2021-11-07T15:38:30.463Z</time>
      </trkpt>
      <trkpt lat="47.552398" lon="7.808880">
        <ele>300.388749</ele>
        <time>2021-11-07T15:38:52.589Z</time>
      </trkpt>
      <trkpt lat="47.552566" lon="7.810386">
        <ele>299.724900</ele>
        <time>2021-11-07T15:39:05.600Z</time>
      </trkpt>
      <trkpt lat="47.552711" lon="7.812955">
        <ele>298.600786</ele>
        <time>2021-11-07T15:39:28.208Z</time>
      </trkpt>
      <trkpt lat="47.552844" lon="7.816432">
        <ele>297.416374</ele>
        <time>2021-11-07T15:39:58.701Z</time>
      </trkpt>
      <trkpt lat="47.552948" lon="7.819358">
        <ele>297.808360</ele>
        <time>2021-11-07T15:40:29.931Z</time>
      </trkpt>
      <trkpt lat="47.552896" lon="7.820699">
        <ele>298.358974</ele>
        <time>2021-11-07T15:40:46.015Z</time>
      </trkpt>
      <trkpt lat="47.552567" lon="7.824508">
        <ele>300.244624</ele>
        <time>2021-11-07T15:41:32.500Z</time>
      </trkpt>
      <trkpt lat="47.552491" lon="7.827227">
        <ele>301.762186</ele>
        <time>2021-11-07T15:42:04.240Z</time>
      </trkpt>
      <trkpt lat="47.552515" lon="7.828094">
        <ele>302.513982</ele>
        <time>2021-11-07T15:42:15.950Z</time>
      </trkpt>
      <trkpt lat="47.552477" lon="7.828294">
        <ele>302.693996</ele>
        <time>2021-11-07T15:42:18.567Z</time>
      </trkpt>
      <trkpt lat="47.552421" lon="7.828481">
        <ele>302.871245</ele>
        <time>2021-11-07T15:42:21.498Z</time>
      </trkpt>
      <trkpt lat="47.552404" lon="7.828582">
        <ele>302.961431</ele>
        <time>2021-11-07T15:42:23.183Z</time>
      </trkpt>
      <trkpt lat="47.552416" lon="7.828822">
        <ele>303.169935</ele>
        <time>2021-11-07T15:42:26.417Z</time>
      </trkpt>
      <trkpt lat="47.552554" lon="7.829266">
        <ele>303.724136</ele>
        <time>2021-11-07T15:42:33.768Z</time>
      </trkpt>
      <trkpt lat="47.552645" lon="7.830686">
        <ele>306.219175</ele>
        <time>2021-11-07T15:42:57.074Z</time>
      </trkpt>
      <trkpt lat="47.552690" lon="7.832598">
        <ele>309.755643</ele>
        <time>2021-11-07T15:43:32.551Z</time>
      </trkpt>
      <trkpt lat="47.552616" lon="7.832891">
        <ele>310.375115</ele>
        <time>2021-11-07T15:43:37.915Z</time>
      </trkpt>
      <trkpt lat="47.552556" lon="7.832977">
        <ele>310.620038</ele>
        <time>2021-11-07T15:43:40.646Z</time>
      </trkpt>
      <trkpt lat="47.552511" lon="7.833072">
        <ele>310.849859</ele>
        <time>2021-11-07T15:43:42.672Z</time>
      </trkpt>
      <trkpt lat="47.552467" lon="7.833198">
        <ele>311.130776</ele>
        <time>2021-11-07T15:43:45.074Z</time>
      </trkpt>
      <trkpt lat="47.552452" lon="7.833284">
        <ele>311.306663</ele>
        <time>2021-11-07T15:43:46.685Z</time>
      </trkpt>
      <trkpt lat="47.552696" lon="7.833789">
        <ele>312.536467</ele>
        <time>2021-11-07T15:43:57.716Z</time>
      </trkpt>
      <trkpt lat="47.552700" lon="7.833938">
        <ele>312.831740</ele>
        <time>2021-11-07T15:44:00.660Z</time>
      </trkpt>
      <trkpt lat="47.552714" lon="7.835010">
        <ele>314.419381</ele>
        <time>2021-11-07T15:44:19.137Z</time>
      </trkpt>
      <trkpt lat="47.552719" lon="7.836790">
        <ele>316.727181</ele>
        <time>2021-11-07T15:44:44.421Z</time>
      </trkpt>
      <trkpt lat="47.552697" lon="7.838068">
        <ele>318.042271</ele>
        <time>2021-11-07T15:45:02.052Z</time>
      </trkpt>
      <trkpt lat="47.552736" lon="7.838578">
        <ele>318.558375</ele>
        <time>2021-11-07T15:45:09.181Z</time>
      </trkpt>
      <trkpt lat="47.552802" lon="7.839009">
        <ele>319.002774</ele>
        <time>2021-11-07T15:45:15.404Z</time>
      </trkpt>
      <trkpt lat="47.552896" lon="7.839363">
        <ele>319.385292</ele>
        <time>2021-11-07T15:45:20.683Z</time>
      </trkpt>
      <trkpt lat="47.552939" lon="7.839526">
        <ele>319.562913</ele>
        <time>2021-11-07T15:45:23.196Z</time>
      </trkpt>
      <trkpt lat="47.553231" lon="7.841529">
        <ele>321.774368</ele>
        <time>2021-11-07T15:45:53.310Z</time>
      </trkpt>
      <trkpt lat="47.553216" lon="7.841849">
        <ele>322.120537</ele>
        <time>2021-11-07T15:45:57.852Z</time>
      </trkpt>
      <trkpt lat="47.553123" lon="7.842222">
        <ele>322.494701</ele>
        <time>2021-11-07T15:46:03.082Z</time>
      </trkpt>
      <trkpt lat="47.553133" lon="7.842431">
        <ele>322.628615</ele>
        <time>2021-11-07T15:46:06.211Z</time>
      </trkpt>
      <trkpt lat="47.552833" lon="7.842495">
        <ele>322.915645</ele>
        <time>2021-11-07T15:46:13.520Z</time>
      </trkpt>
      <trkpt lat="47.552380" lon="7.842592">
        <ele>323.349093</ele>
        <time>2021-11-07T15:46:24.569Z</time>
      </trkpt>
      <trkpt lat="47.551922" lon="7.842704">
        <ele>323.788688</ele>
        <time>2021-11-07T15:46:35.135Z</time>
      </trkpt>
      <trkpt lat="47.551668" lon="7.842770">
        <ele>324.032897</ele>
        <time>2021-11-07T15:46:41.093Z</time>
      </trkpt>
      <trkpt lat="47.551454" lon="7.842815">
        <ele>324.235795</ele>
        <time>2021-11-07T15:46:45.781Z</time>
      </trkpt>
      <trkpt lat="47.551344" lon="7.844621">
        <ele>325.377424</ele>
        <time>2021-11-07T15:47:08.295Z</time>
      </trkpt>
      <trkpt lat="47.551205" lon="7.846694">
        <ele>327.189471</ele>
        <time>2021-11-07T15:47:36.282Z</time>
      </trkpt>
      <trkpt lat="47.551184" lon="7.847206">
        <ele>327.693412</ele>
        <time>2021-11-07T15:47:43.668Z</time>
      </trkpt>
      <trkpt lat="47.551196" lon="7.847517">
        <ele>327.999451</ele>
        <time>2021-11-07T15:47:48.232Z</time>
      </trkpt>
      <trkpt lat="47.551669" lon="7.848083">
        <ele>328.898759</ele>
        <time>2021-11-07T15:48:01.317Z</time>
      </trkpt>
      <trkpt lat="47.551242" lon="7.848702">
        <ele>329.794751</ele>
        <time>2021-11-07T15:48:13.901Z</time>
      </trkpt>
      <trkpt lat="47.550975" lon="7.849066">
        <ele>330.338944</ele>
        <time>2021-11-07T15:48:21.217Z</time>
      </trkpt>
      <trkpt lat="47.550810" lon="7.849346">
        <ele>330.715223</ele>
        <time>2021-11-07T15:48:27.610Z</time>
      </trkpt>
      <trkpt lat="47.550488" lon="7.850081">
        <ele>331.392576</ele>
        <time>2021-11-07T15:48:43.076Z</time>
      </trkpt>
      <trkpt lat="47.550333" lon="7.850434">
        <ele>331.636618</ele>
        <time>2021-11-07T15:48:50.406Z</time>
      </trkpt>
      <trkpt lat="47.550009" lon="7.851173">
        <ele>332.147289</ele>
        <time>2021-11-07T15:49:05.002Z</time>
      </trkpt>
      <trkpt lat="47.549652" lon="7.851969">
        <ele>332.642332</ele>
        <time>2021-11-07T15:49:18.881Z</time>
      </trkpt>
      <trkpt lat="47.549535" lon="7.852225">
        <ele>332.587472</ele>
        <time>2021-11-07T15:49:22.939Z</time>
      </trkpt>
      <trkpt lat="47.549285" lon="7.852784">
        <ele>332.468482</ele>
        <time>2021-11-07T15:49:31.572Z</time>
      </trkpt>
      <trkpt lat="47.549285" lon="7.852783">
        <ele>332.468304</ele>
        <time>2021-11-07T15:49:31.583Z</time>
      </trkpt>
      <trkpt lat="47.549285" lon="7.852784">
        <ele>332.468127</ele>
        <time>2021-11-07T15:49:31.597Z</time>
      </trkpt>
      <trkpt lat="47.549708" lon="7.853279">
        <ele>332.326416</ele>
        <time>2021-11-07T15:49:41.998Z</time>
      </trkpt>
      <trkpt lat="47.550221" lon="7.853833">
        <ele>332.134087</ele>
        <time>2021-11-07T15:49:53.919Z</time>
      </trkpt>
      <trkpt lat="47.549883" lon="7.854434">
        <ele>331.846460</ele>
        <time>2021-11-07T15:50:00.596Z</time>
      </trkpt>
      <trkpt lat="47.549566" lon="7.855225">
        <ele>331.508227</ele>
        <time>2021-11-07T15:50:11.740Z</time>
      </trkpt>
      <trkpt lat="47.549362" lon="7.855774">
        <ele>331.277805</ele>
        <time>2021-11-07T15:50:19.662Z</time>
      </trkpt>
      <trkpt lat="47.548887" lon="7.857308">
        <ele>331.199775</ele>
        <time>2021-11-07T15:50:41.770Z</time>
      </trkpt>
      <trkpt lat="47.548743" lon="7.857692">
        <ele>331.198686</ele>
        <time>2021-11-07T15:50:47.742Z</time>
      </trkpt>
      <trkpt lat="47.548701" lon="7.857893">
        <ele>331.198165</ele>
        <time>2021-11-07T15:50:50.713Z</time>
      </trkpt>
      <trkpt lat="47.548686" lon="7.857973">
        <ele>331.197959</ele>
        <time>2021-11-07T15:50:51.837Z</time>
      </trkpt>
      <trkpt lat="47.548611" lon="7.858381">
        <ele>331.196911</ele>
        <time>2021-11-07T15:50:58.051Z</time>
      </trkpt>
      <trkpt lat="47.548334" lon="7.859801">
        <ele>332.191014</ele>
        <time>2021-11-07T15:51:21.088Z</time>
      </trkpt>
      <trkpt lat="47.548049" lon="7.860929">
        <ele>333.014317</ele>
        <time>2021-11-07T15:51:42.106Z</time>
      </trkpt>
      <trkpt lat="47.547930" lon="7.861711">
        <ele>333.018381</ele>
        <time>2021-11-07T15:51:56.870Z</time>
      </trkpt>
      <trkpt lat="47.547568" lon="7.863151">
        <ele>333.018381</ele>
        <time>2021-11-07T15:52:25.577Z</time>
      </trkpt>
      <trkpt lat="47.547320" lon="7.863864">
        <ele>333.018381</ele>
        <time>2021-11-07T15:52:39.869Z</time>
      </trkpt>
      <trkpt lat="47.547144" lon="7.864148">
        <ele>333.018381</ele>
        <time>2021-11-07T15:52:46.521Z</time>
      </trkpt>
    </trkseg>
  </trk>
</gpx>